M I D A S
Marine Information and Data Acquisition System
Tripno 461 of the Zeeleeuw from 2003-04-14 08:48:46 to 2003-04-14 14:26:54
Back to CruiseResearch ActivitiesStationsMapUnderway DataData graphs

EquipmentUnitsComment
TimeDGPSUTC
LatitudeDGPSDM.mWGS84
LongitudeDGPSDM.mWGS84
TemperatureSBE03/SBE38deg celciusITS90
ConductivitySBE21S/mITS90
SalinitySBE21 Practical Salinity Units
ChlorophylAChelsea fluorimeterg/lCalibrated in Aceton
Missing or incorrect values are displayed as -999
Sea surface data collected by the RV Zeeleeuw from 2003-04-14 08:48:46 to 2003-04-14 14:26:54
                                                                                    Next 1000 lines
Time Latitude Longitude Temperature Conductivity Salinity ChlorophylA
2003-04-14 08:48:56 51°13.6 2°56.1 13.866333 0.036904 0.190185 -0.848668
2003-04-14 08:49:02 51°13.6 2°56.1 13.866996 0.037112 0.191267 -0.848668
2003-04-14 08:49:06 51°13.6 2°56.1 13.873367 0.036385 0.187488 -0.882377
2003-04-14 08:49:12 51°13.6 2°56.1 13.892784 0.034306 0.176693 -0.882377
2003-04-14 08:49:16 51°13.6 2°56.1 13.892784 0.034306 0.176693 -0.882377
2003-04-14 08:49:22 51°13.6 2°56.1 13.900832 0.036489 0.188023 -0.848668
2003-04-14 08:49:26 51°13.6 2°56.09 13.878542 0.035345 0.182084 -0.882377
2003-04-14 08:49:32 51°13.6 2°56.09 13.875136 0.033786 0.173994 -0.848668
2003-04-14 08:49:36 51°13.6 2°56.08 13.861554 0.034826 0.179387 -0.882377
2003-04-14 08:49:42 51°13.61 2°56.07 13.865094 0.034618 0.178312 -0.882377
2003-04-14 08:49:46 51°13.61 2°56.07 13.865094 0.034618 0.178312 -0.882377
2003-04-14 08:49:52 51°13.61 2°56.06 13.864297 0.034722 0.178853 -0.848668
2003-04-14 08:49:56 51°13.61 2°56.05 13.866111 0.034514 0.177778 -0.814958
2003-04-14 08:50:02 51°13.61 2°56.04 13.870934 0.033994 0.175085 -0.848668
2003-04-14 08:50:06 51°13.61 2°56.03 13.867925 0.034514 0.177786 -0.848668
2003-04-14 08:50:12 51°13.62 2°56.02 13.853014 0.035657 0.183732 -0.848668
2003-04-14 08:50:16 51°13.62 2°56.02 13.853014 0.035657 0.183732 -0.848668
2003-04-14 08:50:22 51°13.62 2°56.01 13.85359 0.035761 0.184274 -0.848668
2003-04-14 08:50:26 51°13.62 2°56 13.858811 0.034826 0.179421 -0.848668
2003-04-14 08:50:32 51°13.62 2°55.99 13.862882 0.035137 0.181039 -0.848668
2003-04-14 08:50:36 51°13.63 2°55.98 13.865625 0.035449 0.182665 -0.848668
2003-04-14 08:50:42 51°13.63 2°55.97 13.864961 0.035241 0.181589 -0.848668
2003-04-14 08:50:46 51°13.63 2°55.96 13.864961 0.035241 0.181589 -0.848668
2003-04-14 08:50:52 51°13.64 2°55.95 13.866554 0.035449 0.182673 -0.848668
2003-04-14 08:50:56 51°13.64 2°55.94 13.867262 0.036177 0.186462 -0.848668
2003-04-14 08:51:02 51°13.64 2°55.93 13.867217 0.036073 0.185927 -0.814958
2003-04-14 08:51:06 51°13.64 2°55.92 13.863678 0.036281 0.187013 -0.848668
2003-04-14 08:51:12 51°13.65 2°55.91 13.865182 0.036177 0.18648 -0.848668
2003-04-14 08:51:16 51°13.65 2°55.91 13.865182 0.036177 0.18648 -0.848668
2003-04-14 08:51:22 51°13.65 2°55.89 13.867439 0.035449 0.1827 -0.814958
2003-04-14 08:51:26 51°13.66 2°55.89 13.868987 0.035657 0.18379 -0.848668
2003-04-14 08:51:32 51°13.66 2°55.87 13.873145 0.035761 0.18433 -0.848668
2003-04-14 08:51:36 51°13.66 2°55.87 13.872039 0.036593 0.188659 -0.848668
2003-04-14 08:51:42 51°13.67 2°55.85 13.867483 0.036801 0.189744 -0.848668
2003-04-14 08:51:46 51°13.67 2°55.85 13.867483 0.036801 0.189744 -0.848668
2003-04-14 08:51:52 51°13.67 2°55.84 13.864342 0.03784 0.195166 -0.848668
2003-04-14 08:51:56 51°13.67 2°55.83 13.867262 0.037008 0.190834 -0.814958
2003-04-14 08:52:02 51°13.68 2°55.82 13.869164 0.036593 0.188673 -0.848668
2003-04-14 08:52:06 51°13.68 2°55.81 13.868146 0.037112 0.191384 -0.848668
2003-04-14 08:52:12 51°13.68 2°55.8 13.876419 0.037424 0.193014 -0.814958
2003-04-14 08:52:16 51°13.68 2°55.79 13.876419 0.037424 0.193014 -0.814958
2003-04-14 08:52:22 51°13.68 2°55.78 13.877392 0.036177 0.186524 -0.848668
2003-04-14 08:52:26 51°13.68 2°55.78 13.88186 0.037112 0.191395 -0.848668
2003-04-14 08:52:32 51°13.69 2°55.77 13.882213 0.037112 0.1914 -0.848668
2003-04-14 08:52:36 51°13.69 2°55.76 13.882744 0.037008 0.190859 -0.814958
2003-04-14 08:52:42 51°13.69 2°55.75 13.880179 0.039191 0.202252 -0.848668
2003-04-14 08:52:46 51°13.69 2°55.75 13.880179 0.039191 0.202252 -0.848668
2003-04-14 08:52:52 51°13.69 2°55.75 13.878277 0.036489 0.188165 -0.848668
2003-04-14 08:52:56 51°13.69 2°55.75 13.853324 0.03732 0.192503 -0.848668
2003-04-14 08:53:02 51°13.69 2°55.74 13.85974 0.037528 0.193589 -0.848668
2003-04-14 08:53:06 51°13.69 2°55.74 13.865094 0.036281 0.187091 -0.848668
2003-04-14 08:53:12 51°13.69 2°55.74 13.86589 0.037736 0.194673 -0.814958
2003-04-14 08:53:16 51°13.69 2°55.74 13.86589 0.037736 0.194673 -0.814958
2003-04-14 08:53:22 51°13.69 2°55.74 13.866421 0.037216 0.191967 -0.848668
2003-04-14 08:53:26 51°13.69 2°55.74 13.866908 0.037112 0.191428 -0.882377
2003-04-14 08:53:32 51°13.69 2°55.74 13.867925 0.037736 0.194681 -0.848668
2003-04-14 08:53:36 51°13.69 2°55.74 13.868677 0.037528 0.193597 -0.848668
2003-04-14 08:53:42 51°13.69 2°55.74 13.869606 0.037112 0.191434 -0.882377
2003-04-14 08:53:46 51°13.7 2°55.74 13.869606 0.037112 0.191434 -0.882377
2003-04-14 08:53:52 51°13.7 2°55.74 13.870712 0.037008 0.190895 -0.848668
2003-04-14 08:53:56 51°13.7 2°55.74 13.875401 0.036593 0.188733 -0.814958
2003-04-14 08:54:02 51°13.7 2°55.74 13.878365 0.036904 0.190357 -0.848668
2003-04-14 08:54:06 51°13.7 2°55.74 13.880975 0.036801 0.189818 -0.814958
2003-04-14 08:54:12 51°13.7 2°55.74 13.880533 0.037008 0.190906 -0.848668
2003-04-14 08:54:16 51°13.7 2°55.74 13.880533 0.037008 0.190906 -0.848668
2003-04-14 08:54:22 51°13.71 2°55.74 13.881771 0.036904 0.19037 -0.848668
2003-04-14 08:54:26 51°13.71 2°55.74 13.882081 0.036697 0.189282 -0.848668
2003-04-14 08:54:32 51°13.71 2°55.74 13.881329 0.036801 0.189835 -0.848668
2003-04-14 08:54:36 51°13.71 2°55.74 13.880179 0.036904 0.190382 -0.882377
2003-04-14 08:54:42 51°13.71 2°55.74 13.877082 0.038256 0.197435 -0.848668
2003-04-14 08:54:46 51°13.72 2°55.74 13.877082 0.038256 0.197435 -0.848668
2003-04-14 08:54:52 51°13.72 2°55.73 13.873145 0.038048 0.196356 -0.814958
2003-04-14 08:54:56 51°13.72 2°55.73 13.867704 0.037944 0.195816 -0.848668
2003-04-14 08:55:02 51°13.73 2°55.73 13.861952 0.037736 0.194738 -0.848668
2003-04-14 08:55:06 51°13.73 2°55.73 13.86912 0.036281 0.187154 -0.848668
2003-04-14 08:55:12 51°13.73 2°55.72 13.876242 0.036697 0.189315 -0.814958
2003-04-14 08:55:16 51°13.74 2°55.72 13.876242 0.036697 0.189315 -0.814958
2003-04-14 08:55:22 51°13.74 2°55.72 13.891722 0.035969 0.185526 -0.848668
2003-04-14 08:55:26 51°13.75 2°55.71 13.897383 0.035761 0.184448 -0.814958
2003-04-14 08:55:32 51°13.75 2°55.71 13.895835 0.037632 0.194193 -0.848668
2003-04-14 08:55:36 51°13.76 2°55.7 13.893624 0.037112 0.19149 -0.848668
2003-04-14 08:55:42 51°13.77 2°55.7 13.894155 0.036281 0.187154 -0.848668
2003-04-14 08:55:46 51°13.77 2°55.69 13.894155 0.036281 0.187154 -0.848668
2003-04-14 08:55:52 51°13.78 2°55.68 13.905785 0.035033 0.180672 -0.848668
2003-04-14 08:55:56 51°13.78 2°55.68 -999 0.034826 0.179594 -0.814958
2003-04-14 08:56:02 51°13.79 2°55.67 -999 0.034514 0.177978 -0.882377
2003-04-14 08:56:06 51°13.8 2°55.66 -999 0.033994 0.175282 -0.848668
2003-04-14 08:56:12 51°13.81 2°55.66 -999 0.033059 0.170434 -0.882377
2003-04-14 08:56:16 51°13.82 2°55.65 -999 0.033059 0.170434 -0.882377
2003-04-14 08:56:22 51°13.83 2°55.64 -999 0.033059 0.170434 -0.882377
2003-04-14 08:56:26 51°13.83 2°55.64 -999 0.03337 0.172054 -0.848668
2003-04-14 08:56:32 51°13.85 2°55.63 -999 0.032643 0.168294 -0.848668
2003-04-14 08:56:36 51°13.85 2°55.62 -999 0.033162 0.17099 -0.848668
2003-04-14 08:56:42 51°13.86 2°55.61 -999 0.032227 0.16615 -0.882377
2003-04-14 08:56:46 51°13.87 2°55.61 -999 0.032227 0.16615 -0.882377
2003-04-14 08:56:52 51°13.88 2°55.6 -999 0.032331 0.16669 -0.848668
2003-04-14 08:56:56 51°13.89 2°55.59 -999 0.032227 0.166158 -0.848668
2003-04-14 08:57:02 51°13.9 2°55.58 -999 0.032331 0.166702 -0.882377
2003-04-14 08:57:06 51°13.91 2°55.57 -999 0.032227 0.166169 -0.848668
2003-04-14 08:57:12 51°13.93 2°55.57 -999 0.033059 0.170478 -0.848668
2003-04-14 08:57:16 51°13.93 2°55.56 -999 0.033059 0.170478 -0.848668
2003-04-14 08:57:22 51°13.95 2°55.55 -999 0.032227 0.166179 -0.814958
2003-04-14 08:57:26 51°13.96 2°55.54 -999 0.031499 0.162415 -0.848668
2003-04-14 08:57:32 51°13.97 2°55.53 -999 0.031603 0.162952 -0.848668
2003-04-14 08:57:36 51°13.98 2°55.52 -999 0.031603 0.162957 -0.848668
2003-04-14 08:57:42 51°13.99 2°55.51 -999 0.031603 0.162955 -0.882377
2003-04-14 08:57:46 51°14 2°55.51 -999 0.031603 0.162955 -0.882377
2003-04-14 08:57:52 51°14.02 2°55.5 -999 0.031603 0.162959 -0.848668
2003-04-14 08:57:56 51°14.03 2°55.49 -999 0.031292 0.161353 -0.848668
2003-04-14 08:58:02 51°14.04 2°55.48 -999 0.031395 0.161883 -0.848668
2003-04-14 08:58:06 51°14.05 2°55.47 -999 0.03098 0.159743 -0.882377
2003-04-14 08:58:12 51°14.06 2°55.46 -999 0.03098 0.159748 -0.882377
2003-04-14 08:58:16 51°14.07 2°55.45 -999 0.03098 0.159748 -0.882377
2003-04-14 08:58:22 51°14.09 2°55.44 -999 0.031707 0.163508 -0.848668
2003-04-14 08:58:26 51°14.1 2°55.43 -999 0.031707 0.163518 -0.848668
2003-04-14 08:58:32 51°14.11 2°55.42 -999 0.031707 0.163522 -0.848668
2003-04-14 08:58:36 51°14.12 2°55.42 -999 0.031915 0.164597 -0.848668
2003-04-14 08:58:42 51°14.14 2°55.4 -999 0.031915 0.164602 -0.848668
2003-04-14 08:58:46 51°14.15 2°55.4 -999 0.031915 0.164602 -0.848668
2003-04-14 08:58:52 51°14.16 2°55.39 -999 0.031707 0.163532 -0.848668
2003-04-14 08:58:56 51°14.17 2°55.38 -999 0.031707 0.163536 -0.814958
2003-04-14 08:59:02 51°14.18 2°55.36 -999 0.032227 0.166231 -0.848668
2003-04-14 08:59:06 51°14.19 2°55.35 -999 0.032851 0.169467 -0.882377
2003-04-14 08:59:12 51°14.2 2°55.34 -999 0.033266 0.171629 -0.848668
2003-04-14 08:59:16 51°14.21 2°55.33 -999 0.033266 0.171629 -0.848668
2003-04-14 08:59:22 51°14.22 2°55.31 -999 0.033059 0.170552 -0.848668
2003-04-14 08:59:26 51°14.23 2°55.3 -999 0.032227 0.166248 -0.882377
2003-04-14 08:59:32 51°14.24 2°55.29 -999 0.032851 0.169477 -0.848668
2003-04-14 08:59:36 51°14.25 2°55.27 -999 0.03337 0.172176 -0.848668
2003-04-14 08:59:42 51°14.26 2°55.26 -999 0.032227 0.16625 -0.814958
2003-04-14 08:59:46 51°14.27 2°55.24 -999 0.032227 0.16625 -0.814958
2003-04-14 08:59:52 51°14.28 2°55.22 -999 0.033162 0.171098 -0.848668
2003-04-14 08:59:56 51°14.29 2°55.21 -999 0.033474 0.17272 -0.848668
2003-04-14 09:00:02 51°14.3 2°55.19 -999 0.032331 0.166788 -0.848668
2003-04-14 09:00:06 51°14.31 2°55.18 -999 0.033266 0.171629 -0.882377
2003-04-14 09:00:12 51°14.32 2°55.16 -999 0.030772 0.158722 -0.848668
2003-04-14 09:00:16 51°14.32 2°55.15 -999 0.030772 0.158722 -0.848668
2003-04-14 09:00:22 51°14.33 2°55.13 -999 0.03337 0.172173 -0.882377
2003-04-14 09:00:26 51°14.34 2°55.11 -999 0.032435 0.167331 -0.848668
2003-04-14 09:00:32 51°14.35 2°55.09 -999 0.031603 0.163029 -0.848668
2003-04-14 09:00:36 51°14.35 2°55.08 -999 0.032851 0.169492 -0.848668
2003-04-14 09:00:40 51°14.36 2°55.06 -999 0.030772 0.158731 -0.848668
2003-04-14 09:00:46 51°14.37 2°55.05 -999 0.030772 0.158731 -0.848668
2003-04-14 09:00:52 51°14.38 2°55.03 -999 0.033059 0.170559 -0.848668
2003-04-14 09:00:56 51°14.39 2°55.02 -999 0.04231 0.218875 -0.882377
2003-04-14 09:01:02 51°14.41 2°55.01 -999 0.050938 0.264558 -0.848668
2003-04-14 09:01:06 51°14.42 2°55 -999 0.053329 0.277317 -0.848668
2003-04-14 09:01:12 51°14.43 2°54.99 -999 0.040023 0.206932 -0.848668
2003-04-14 09:01:16 51°14.44 2°54.99 -999 0.040023 0.206932 -0.848668
2003-04-14 09:01:22 51°14.46 2°54.98 -999 0.036593 0.188964 -0.848668
2003-04-14 09:01:26 51°14.47 2°54.97 -999 0.038256 0.197645 -0.848668
2003-04-14 09:01:32 51°14.48 2°54.96 -999 0.036281 0.187333 -0.848668
2003-04-14 09:01:36 51°14.49 2°54.95 -999 0.035137 0.181382 -0.848668
2003-04-14 09:01:42 51°14.51 2°54.94 -999 0.036385 0.187875 -0.848668
2003-04-14 09:01:46 51°14.52 2°54.94 -999 0.036385 0.187875 -0.848668
2003-04-14 09:01:52 51°14.54 2°54.93 -999 0.036489 0.188406 -0.848668
2003-04-14 09:01:56 51°14.55 2°54.92 -999 0.035553 0.183524 -0.882377
2003-04-14 09:02:02 51°14.56 2°54.91 -999 0.037632 0.194374 -0.848668
2003-04-14 09:02:06 51°14.57 2°54.91 -999 0.036281 0.187333 -0.848668
2003-04-14 09:02:12 51°14.59 2°54.9 -999 0.039087 0.202007 -0.814958
2003-04-14 09:02:16 51°14.6 2°54.89 -999 0.039087 0.202007 -0.814958
2003-04-14 09:02:22 51°14.61 2°54.88 -999 0.036177 0.18683 -0.848668
2003-04-14 09:02:26 51°14.62 2°54.87 -999 0.037528 0.193866 -0.848668
2003-04-14 09:02:32 51°14.64 2°54.86 -999 0.035345 0.182484 -0.814958
2003-04-14 09:02:36 51°14.65 2°54.85 -999 0.035449 0.183012 -0.848668
2003-04-14 09:02:42 51°14.66 2°54.85 -999 0.034306 0.177063 -0.848668
2003-04-14 09:02:46 51°14.67 2°54.84 -999 0.034306 0.177063 -0.848668
2003-04-14 09:02:52 51°14.68 2°54.84 -999 0.035345 0.182466 -0.848668
2003-04-14 09:02:56 51°14.69 2°54.84 -999 0.036489 0.188427 -0.848668
2003-04-14 09:03:02 51°14.71 2°54.83 -999 0.035137 0.1814 -0.848668
2003-04-14 09:03:06 51°14.71 2°54.83 -999 0.038152 0.197131 -0.882377
2003-04-14 09:03:12 51°14.73 2°54.83 -999 0.037008 0.191179 -0.882377
2003-04-14 09:03:16 51°14.73 2°54.83 -999 0.037008 0.191179 -0.882377
2003-04-14 09:03:22 51°14.74 2°54.83 -999 0.039919 0.206423 -0.848668
2003-04-14 09:03:26 51°14.75 2°54.84 -999 0.038983 0.201534 -0.848668
2003-04-14 09:03:30 51°14.76 2°54.84 -999 0.03784 0.195556 -0.814958
2003-04-14 09:03:36 51°14.77 2°54.84 -999 0.041894 0.2168 -0.882377
2003-04-14 09:03:42 51°14.78 2°54.84 -999 0.043349 0.224471 -0.814958
2003-04-14 09:03:46 51°14.78 2°54.85 -999 0.043349 0.224471 -0.814958
2003-04-14 09:03:52 51°14.79 2°54.85 -999 0.04231 0.219007 -0.848668
2003-04-14 09:03:56 51°14.8 2°54.85 -999 0.038983 0.201561 -0.848668
2003-04-14 09:04:02 51°14.81 2°54.85 -999 0.046052 0.238758 -0.848668
2003-04-14 09:04:06 51°14.81 2°54.86 -999 0.040751 0.21085 -0.814958
2003-04-14 09:04:12 51°14.82 2°54.86 -999 0.040647 0.210305 -0.848668
2003-04-14 09:04:16 51°14.83 2°54.86 -999 0.040647 0.210305 -0.848668
2003-04-14 09:04:22 51°14.83 2°54.87 -999 0.039815 0.205939 -0.848668
2003-04-14 09:04:26 51°14.84 2°54.87 -999 0.044285 0.229422 -0.848668
2003-04-14 09:04:32 51°14.85 2°54.87 -999 0.045013 0.233254 -0.882377
2003-04-14 09:04:36 51°14.85 2°54.87 -999 0.043453 0.225035 -0.814958
2003-04-14 09:04:42 51°14.86 2°54.88 -999 0.041894 0.216851 -0.882377
2003-04-14 09:04:46 51°14.86 2°54.88 -999 0.041894 0.216851 -0.882377
2003-04-14 09:04:52 51°14.87 2°54.88 -999 0.043557 0.225609 -0.882377
2003-04-14 09:04:56 51°14.88 2°54.89 -999 0.04283 0.221766 -0.848668
2003-04-14 09:05:02 51°14.88 2°54.89 -999 0.042206 0.218473 -0.848668
2003-04-14 09:05:06 51°14.89 2°54.89 -999 0.045117 0.233806 -0.848668
2003-04-14 09:05:12 51°14.89 2°54.9 -999 0.04179 0.216308 -0.848668
2003-04-14 09:05:16 51°14.9 2°54.9 -999 0.04179 0.216308 -0.848668
2003-04-14 09:05:22 51°14.9 2°54.9 -999 0.042102 0.217953 -0.848668
2003-04-14 09:05:26 51°14.91 2°54.9 -999 0.047196 0.244816 -0.882377
2003-04-14 09:05:32 51°14.92 2°54.91 -999 0.039607 0.204859 -0.848668
2003-04-14 09:05:36 51°14.92 2°54.91 -999 0.043973 0.227816 -0.848668
2003-04-14 09:05:42 51°14.93 2°54.91 -999 0.045844 0.237696 -0.882377
2003-04-14 09:05:46 51°14.93 2°54.92 -999 0.045844 0.237696 -0.882377
2003-04-14 09:05:52 51°14.94 2°54.92 -999 0.044181 0.228914 -0.848668
2003-04-14 09:05:56 51°14.94 2°54.92 -999 0.043245 0.223997 -0.882377
2003-04-14 09:06:02 51°14.95 2°54.92 -999 0.043349 0.224541 -0.848668
2003-04-14 09:06:06 51°14.95 2°54.93 -999 0.041166 0.213061 -0.882377
2003-04-14 09:06:12 51°14.96 2°54.93 -999 0.039191 0.202708 -0.882377
2003-04-14 09:06:16 51°14.96 2°54.93 -999 0.039191 0.202708 -0.882377
2003-04-14 09:06:22 51°14.97 2°54.93 -999 0.046468 0.241005 -0.848668
2003-04-14 09:06:26 51°14.97 2°54.94 -999 0.041166 0.21307 -0.882377
2003-04-14 09:06:32 51°14.97 2°54.94 -999 0.042726 0.221252 -0.814958
2003-04-14 09:06:36 51°14.98 2°54.94 -999 0.039919 0.206508 -0.848668
2003-04-14 09:06:42 51°14.98 2°54.94 -999 0.040958 0.211973 -0.814958
2003-04-14 09:06:46 51°14.99 2°54.94 -999 0.040958 0.211973 -0.814958
2003-04-14 09:06:52 51°14.99 2°54.95 -999 0.039607 0.204895 -0.848668
2003-04-14 09:06:56 51°15 2°54.95 -999 0.042726 0.221301 -0.848668
2003-04-14 09:07:02 51°15 2°54.95 -999 0.040855 0.211464 -0.848668
2003-04-14 09:07:06 51°15.01 2°54.95 -999 0.044701 0.231709 -0.814958
2003-04-14 09:07:12 51°15.01 2°54.96 -999 0.041582 0.215279 -0.848668
2003-04-14 09:07:16 51°15.01 2°54.96 -999 0.041582 0.215279 -0.848668
2003-04-14 09:07:22 51°15.02 2°54.96 -999 0.042102 0.218004 -0.848668
2003-04-14 09:07:26 51°15.03 2°54.96 -999 0.051978 0.270274 -0.882377
2003-04-14 09:07:32 51°15.04 2°54.96 -999 0.048131 0.249904 -0.814958
2003-04-14 09:07:36 51°15.04 2°54.96 -999 0.048651 0.252685 -0.848668
2003-04-14 09:07:42 51°15.05 2°54.96 -999 0.039815 0.206057 -0.814958
2003-04-14 09:07:46 51°15.06 2°54.95 -999 0.039815 0.206057 -0.814958
2003-04-14 09:07:52 51°15.07 2°54.95 -999 0.039295 0.203268 -0.848668
2003-04-14 09:07:56 51°15.08 2°54.94 -999 0.036593 0.189118 -0.848668
2003-04-14 09:08:02 51°15.09 2°54.93 -999 0.035761 0.184774 -0.848668
2003-04-14 09:08:06 51°15.1 2°54.92 -999 0.037736 0.195082 -0.882377
2003-04-14 09:08:12 51°15.12 2°54.91 -999 0.034202 0.176656 -0.814958
2003-04-14 09:08:16 51°15.13 2°54.9 -999 0.034202 0.176656 -0.814958
2003-04-14 09:08:22 51°15.14 2°54.88 -999 0.033474 0.172879 -0.882377
2003-04-14 09:08:26 51°15.15 2°54.87 -999 0.034306 0.177199 -0.814958
2003-04-14 09:08:32 51°15.16 2°54.85 -999 0.03389 0.175048 -0.848668
2003-04-14 09:08:36 51°15.18 2°54.84 -999 0.036801 0.190233 -0.848668
2003-04-14 09:08:42 51°15.19 2°54.82 -999 0.034098 0.176164 -0.882377
2003-04-14 09:08:46 51°15.2 2°54.81 -999 0.034098 0.176164 -0.882377
2003-04-14 09:08:52 51°15.22 2°54.79 -999 0.039191 0.202771 -0.848668
2003-04-14 09:08:56 51°15.23 2°54.78 -999 0.040647 0.210423 -0.848668
2003-04-14 09:09:02 51°15.24 2°54.76 -999 0.037632 0.194635 -0.848668
2003-04-14 09:09:06 51°15.26 2°54.74 -999 0.036697 0.189743 -0.882377
2003-04-14 09:09:12 51°15.27 2°54.73 -999 0.037944 0.196274 -0.848668
2003-04-14 09:09:16 51°15.28 2°54.71 -999 0.037944 0.196274 -0.848668
2003-04-14 09:09:22 51°15.3 2°54.69 -999 0.034826 0.17999 -0.848668
2003-04-14 09:09:26 51°15.31 2°54.68 -999 0.037112 0.1919 -0.848668
2003-04-14 09:09:32 51°15.33 2°54.66 -999 0.036281 0.187565 -0.848668
2003-04-14 09:09:36 51°15.34 2°54.65 -999 0.038256 0.197885 -0.882377
2003-04-14 09:09:42 51°15.35 2°54.63 -999 0.036073 0.186484 -0.848668
2003-04-14 09:09:46 51°15.36 2°54.61 -999 0.036073 0.186484 -0.848668
2003-04-14 09:09:52 51°15.38 2°54.59 -999 0.038983 0.201717 -0.848668
2003-04-14 09:09:56 51°15.39 2°54.58 -999 0.038464 0.199011 -0.882377
2003-04-14 09:10:02 51°15.41 2°54.56 -999 0.036177 0.187072 -0.814958
2003-04-14 09:10:06 51°15.42 2°54.55 -999 2.064772 13.395412 -0.511574
2003-04-14 09:10:12 51°15.44 2°54.53 -999 2.054693 13.460011 -0.545283
2003-04-14 09:10:16 51°15.45 2°54.51 -999 2.054693 13.460011 -0.545283
2003-04-14 09:10:22 51°15.46 2°54.49 -999 3.471236 24.056269 7.410136
2003-04-14 09:10:26 51°15.47 2°54.48 -999 3.760933 28.417206 4.241452
2003-04-14 09:10:32 51°15.49 2°54.46 -999 3.757792 29.665307 15.095879
2003-04-14 09:10:36 51°15.5 2°54.45 -999 3.761294 31.246616 22.983879
2003-04-14 09:10:42 51°15.52 2°54.43 -999 3.49725 30.200578 21.568084
2003-04-14 09:10:46 51°15.53 2°54.42 -999 3.49725 30.200578 21.568084
2003-04-14 09:10:52 51°15.54 2°54.4 -999 3.436688 30.433394 19.916324
2003-04-14 09:10:56 51°15.55 2°54.38 -999 3.365383 30.248507 19.478101
2003-04-14 09:11:02 51°15.57 2°54.36 -999 3.334528 30.269148 19.208426
2003-04-14 09:11:06 51°15.58 2°54.35 -999 3.306095 30.251346 18.669076
2003-04-14 09:11:12 51°15.6 2°54.33 -999 3.287983 30.261213 18.534238
2003-04-14 09:11:16 51°15.61 2°54.32 -999 3.287983 30.261213 18.534238
2003-04-14 09:11:22 51°15.63 2°54.3 -999 3.29504 30.41005 17.961178
2003-04-14 09:11:26 51°15.64 2°54.29 -999 3.265554 30.220932 17.792631
2003-04-14 09:11:32 51°15.65 2°54.27 -999 3.277455 30.41685 17.657794
2003-04-14 09:11:36 51°15.67 2°54.26 -999 3.26366 30.318001 17.522956
2003-04-14 09:11:42 51°15.68 2°54.24 -999 3.276824 30.476136 17.421828
2003-04-14 09:11:46 51°15.7 2°54.23 -999 3.276824 30.476136 17.421828
2003-04-14 09:11:52 51°15.71 2°54.21 -999 3.262397 30.358631 17.3207
2003-04-14 09:11:56 51°15.72 2°54.2 -999 3.244916 30.198243 16.848768
2003-04-14 09:12:02 51°15.74 2°54.18 -999 3.262924 30.394496 16.612802
2003-04-14 09:12:06 51°15.75 2°54.17 -999 3.24797 30.255095 15.904905
2003-04-14 09:12:12 51°15.77 2°54.15 -999 3.248708 30.270465 15.466683
2003-04-14 09:12:16 51°15.78 2°54.14 -999 3.248708 30.270465 15.466683
2003-04-14 09:12:22 51°15.8 2°54.12 -999 3.259133 30.401463 14.961042
2003-04-14 09:12:26 51°15.81 2°54.11 -999 3.260187 30.433664 15.06217
2003-04-14 09:12:32 51°15.83 2°54.09 -999 3.258291 30.423312 15.06217
2003-04-14 09:12:36 51°15.84 2°54.07 -999 3.249656 30.348229 15.399264
2003-04-14 09:12:42 51°15.86 2°54.05 -999 3.247445 30.353763 16.073452
2003-04-14 09:12:46 51°15.87 2°54.04 -999 3.247445 30.353763 16.073452
2003-04-14 09:12:52 51°15.89 2°54.02 -999 3.253869 30.428095 16.545383
2003-04-14 09:12:56 51°15.91 2°54.01 -999 3.252711 30.433207 17.185862
2003-04-14 09:13:02 51°15.92 2°53.99 -999 3.241549 30.331801 17.489247
2003-04-14 09:13:06 51°15.94 2°53.97 -999 3.252922 30.452519 17.657794
2003-04-14 09:13:12 51°15.96 2°53.95 -999 3.236705 30.29796 17.691503
2003-04-14 09:13:16 51°15.97 2°53.94 -999 3.236705 30.29796 17.691503
2003-04-14 09:13:22 51°15.99 2°53.92 -999 3.235862 30.303449 17.725212
2003-04-14 09:13:26 51°16 2°53.91 -999 3.251974 30.475572 17.792631
2003-04-14 09:13:32 51°16.02 2°53.89 -999 3.240707 30.36651 18.331982
2003-04-14 09:13:36 51°16.03 2°53.87 -999 3.247657 30.444351 18.702785
2003-04-14 09:13:42 51°16.05 2°53.85 -999 3.246499 30.440908 19.174717
2003-04-14 09:13:46 51°16.06 2°53.84 -999 3.246499 30.440908 19.174717
2003-04-14 09:13:52 51°16.08 2°53.82 -999 3.246077 30.43868 19.343264
2003-04-14 09:13:56 51°16.09 2°53.81 -999 3.245867 30.446511 19.680358
2003-04-14 09:14:02 51°16.11 2°53.79 -999 3.249974 30.489172 19.478101
2003-04-14 09:14:06 51°16.12 2°53.77 -999 3.247447 30.46435 19.680358
2003-04-14 09:14:12 51°16.14 2°53.75 -999 3.249342 30.490493 19.747777
2003-04-14 09:14:16 51°16.16 2°53.74 -999 3.249342 30.490493 19.747777
2003-04-14 09:14:22 51°16.18 2°53.72 -999 3.255661 30.559033 20.017452
2003-04-14 09:14:26 51°16.19 2°53.71 -999 3.251659 30.52031 20.185999
2003-04-14 09:14:32 51°16.21 2°53.69 -999 3.250395 30.508611 20.084871
2003-04-14 09:14:36 51°16.22 2°53.67 -999 3.247026 30.478606 19.950033
2003-04-14 09:14:42 51°16.24 2°53.65 -999 3.25366 30.55045 19.983742
2003-04-14 09:14:46 51°16.25 2°53.64 -999 3.25366 30.55045 19.983742
2003-04-14 09:14:52 51°16.27 2°53.62 -999 3.249658 30.511714 19.950033
2003-04-14 09:14:56 51°16.28 2°53.61 -999 3.245551 30.470451 19.680358
2003-04-14 09:15:02 51°16.3 2°53.59 -999 3.254924 30.569345 19.646648
2003-04-14 09:15:06 51°16.31 2°53.57 -999 3.251027 30.533134 19.57923
2003-04-14 09:15:12 51°16.33 2°53.55 -999 3.251975 30.542991 19.57923
2003-04-14 09:15:16 51°16.34 2°53.54 -999 3.251975 30.542991 19.57923
2003-04-14 09:15:22 51°16.36 2°53.52 -999 3.257978 30.608314 19.781486
2003-04-14 09:15:26 51°16.38 2°53.5 -999 3.258188 30.613388 19.983742
2003-04-14 09:15:32 51°16.39 2°53.48 -999 3.246815 30.500097 20.185999
2003-04-14 09:15:36 51°16.41 2°53.47 -999 3.257767 30.613329 20.11858
2003-04-14 09:15:42 51°16.43 2°53.45 -999 3.247131 30.508411 20.624221
2003-04-14 09:15:46 51°16.44 2°53.44 -999 3.247131 30.508411 20.624221
2003-04-14 09:15:52 51°16.46 2°53.42 -999 3.257557 30.614742 20.961315
2003-04-14 09:15:56 51°16.47 2°53.4 -999 3.252186 30.564607 21.433247
2003-04-14 09:16:02 51°16.49 2°53.38 -999 3.258083 30.630321 21.871469
2003-04-14 09:16:06 51°16.5 2°53.37 -999 3.249343 30.540771 22.646785
2003-04-14 09:16:12 51°16.52 2°53.35 -999 3.247869 30.5319 23.556939
2003-04-14 09:16:16 51°16.53 2°53.34 -999 3.247869 30.5319 23.556939
2003-04-14 09:16:22 51°16.55 2°53.32 -999 3.265771 30.721959 23.759195
2003-04-14 09:16:26 51°16.56 2°53.3 -999 3.266192 30.727797 23.927742
2003-04-14 09:16:32 51°16.58 2°53.28 -999 3.26377 30.703283 24.129999
2003-04-14 09:16:36 51°16.59 2°53.27 -999 2.776837 25.689764 24.231127
2003-04-14 09:16:42 51°16.61 2°53.25 -999 3.272406 30.796907 24.365965
2003-04-14 09:16:46 51°16.62 2°53.23 -999 3.272406 30.796907 24.365965
2003-04-14 09:16:52 51°16.64 2°53.21 -999 3.272511 30.797279 25.141281
2003-04-14 09:16:56 51°16.65 2°53.2 -999 3.273143 30.809677 25.107571
2003-04-14 09:17:02 51°16.67 2°53.18 -999 3.272511 30.805267 25.613212
2003-04-14 09:17:06 51°16.68 2°53.16 -999 3.273248 30.812228 26.017725
2003-04-14 09:17:12 51°16.7 2°53.14 -999 3.271984 30.801229 26.118853
2003-04-14 09:17:16 51°16.71 2°53.13 -999 3.271984 30.801229 26.118853
2003-04-14 09:17:22 51°16.73 2°53.11 -999 3.271774 30.801939 26.422238
2003-04-14 09:17:26 51°16.74 2°53.09 -999 3.272932 30.815473 27.062717
2003-04-14 09:17:32 51°16.76 2°53.07 -999 3.271458 30.802276 27.905452
2003-04-14 09:17:36 51°16.77 2°53.05 -999 3.272406 30.809981 28.54593
2003-04-14 09:17:42 51°16.79 2°53.03 -999 3.270826 30.796413 29.523503
2003-04-14 09:17:46 51°16.8 2°53.02 -999 3.270826 30.796413 29.523503
2003-04-14 09:17:52 51°16.82 2°53 -999 3.273248 30.823857 29.995435
2003-04-14 09:17:56 51°16.83 2°52.98 -999 3.270194 30.792728 30.669623
2003-04-14 09:18:02 51°16.85 2°52.96 -999 3.271353 30.804811 31.310101
2003-04-14 09:18:06 51°16.86 2°52.95 -999 3.271458 30.805909 32.085418
2003-04-14 09:18:12 51°16.88 2°52.92 -999 3.272406 30.817977 33.298956
2003-04-14 09:18:16 51°16.89 2°52.91 -999 3.272406 30.817977 33.298956
2003-04-14 09:18:22 51°16.91 2°52.89 -999 3.271985 30.813583 34.445076
2003-04-14 09:18:26 51°16.92 2°52.87 -999 3.272616 30.823083 34.849589
2003-04-14 09:18:32 51°16.93 2°52.85 -999 3.269352 30.786846 35.523777
2003-04-14 09:18:36 51°16.95 2°52.84 -999 3.270194 30.794181 36.669896
2003-04-14 09:18:42 51°16.96 2°52.81 -999 3.270405 30.798558 37.141828
2003-04-14 09:18:46 51°16.98 2°52.8 -999 3.270405 30.798558 37.141828
2003-04-14 09:18:52 51°16.99 2°52.78 -999 3.270194 30.797087 38.051982
2003-04-14 09:18:56 51°17.01 2°52.76 -999 3.271669 30.813195 38.793589
2003-04-14 09:19:02 51°17.02 2°52.74 -999 3.27051 30.801836 39.501486
2003-04-14 09:19:06 51°17.04 2°52.73 -999 3.272406 30.82525 40.141965
2003-04-14 09:19:12 51°17.05 2°52.7 -999 3.270932 30.809866 40.883571
2003-04-14 09:19:16 51°17.07 2°52.69 -999 3.270932 30.809866 40.883571
2003-04-14 09:19:22 51°17.08 2°52.67 -999 3.272617 30.831813 41.456631
2003-04-14 09:19:26 51°17.1 2°52.65 -999 3.271353 30.821535 42.09711
2003-04-14 09:19:32 51°17.11 2°52.63 -999 3.264402 30.751911 42.602751
2003-04-14 09:19:36 51°17.12 2°52.61 -999 3.271142 30.822974 43.074683
2003-04-14 09:19:42 51°17.14 2°52.59 -999 3.272827 30.840562 44.085965
2003-04-14 09:19:46 51°17.15 2°52.58 -999 3.272827 30.840562 44.085965
2003-04-14 09:19:52 51°17.17 2°52.55 -999 3.2703 30.814181 44.524187
2003-04-14 09:19:56 51°17.18 2°52.54 -999 3.272827 30.84129 45.265794
2003-04-14 09:20:02 51°17.2 2°52.51 -999 3.269141 30.803545 46.58046
2003-04-14 09:20:06 51°17.21 2°52.5 -999 3.267035 30.78447 47.052392
2003-04-14 09:20:12 51°17.23 2°52.47 -999 3.269457 30.810479 47.659161
2003-04-14 09:20:16 51°17.24 2°52.46 -999 3.269457 30.810479 47.659161
2003-04-14 09:20:22 51°17.26 2°52.44 -999 3.271985 30.836136 48.8727
2003-04-14 09:20:26 51°17.27 2°52.42 -999 3.268931 30.80571 49.546888
2003-04-14 09:20:32 51°17.28 2°52.4 -999 3.27367 30.853727 50.254785
2003-04-14 09:20:36 51°17.29 2°52.38 -999 3.274091 30.859583 51.468324
2003-04-14 09:20:42 51°17.31 2°52.35 -999 3.273564 30.854085 52.277349
2003-04-14 09:20:46 51°17.32 2°52.34 -999 3.273564 30.854085 52.277349
2003-04-14 09:20:52 51°17.34 2°52.31 -999 3.272722 30.84456 53.490888
2003-04-14 09:20:56 51°17.35 2°52.3 -999 3.267246 30.786668 54.434751
2003-04-14 09:21:02 51°17.36 2°52.27 -999 3.272722 30.845289 56.15393
2003-04-14 09:21:06 51°17.38 2°52.26 -999 3.265772 30.774187 57.030375
2003-04-14 09:21:12 51°17.39 2°52.23 -999 3.270405 30.822557 58.547298
2003-04-14 09:21:16 51°17.4 2°52.21 -999 3.270405 30.822557 58.547298
2003-04-14 09:21:22 51°17.42 2°52.19 -999 3.268615 30.804595 59.929383
2003-04-14 09:21:26 51°17.43 2°52.17 -999 3.269773 30.816688 61.614853
2003-04-14 09:21:32 51°17.45 2°52.15 -999 3.263876 30.755129 63.536289
2003-04-14 09:21:36 51°17.46 2°52.13 -999 3.269563 30.815217 65.255469
2003-04-14 09:21:42 51°17.47 2°52.1 -999 3.271248 30.83208 67.682546
2003-04-14 09:21:46 51°17.48 2°52.09 -999 3.271248 30.83208 67.682546
2003-04-14 09:21:52 51°17.5 2°52.06 -999 3.270195 30.822541 68.424153
2003-04-14 09:21:56 51°17.51 2°52.05 -999 3.269352 30.815201 68.255606
2003-04-14 09:22:02 51°17.53 2°52.02 -999 3.267562 30.798692 68.221896
2003-04-14 09:22:06 51°17.54 2°52 -999 3.269457 30.818484 68.255606
2003-04-14 09:22:12 51°17.55 2°51.98 -999 3.269142 30.816641 68.221896
2003-04-14 09:22:16 51°17.56 2°51.96 -999 3.269142 30.816641 68.221896
2003-04-14 09:22:22 51°17.58 2°51.94 -999 3.270827 30.837878 68.221896
2003-04-14 09:22:26 51°17.59 2°51.92 -999 3.273038 30.864621 68.188187
2003-04-14 09:22:32 51°17.61 2°51.89 -999 3.273249 30.869739 68.154477
2003-04-14 09:22:36 51°17.62 2°51.88 -999 3.275776 30.900526 68.221896
2003-04-14 09:22:42 51°17.63 2°51.85 -999 3.272828 30.874093 68.188187
2003-04-14 09:22:46 51°17.64 2°51.84 -999 3.272828 30.874093 68.188187
2003-04-14 09:22:52 51°17.66 2°51.81 -999 3.276092 30.914056 68.154477
2003-04-14 09:22:56 51°17.67 2°51.79 -999 3.268931 30.844314 68.188187
2003-04-14 09:23:02 51°17.69 2°51.77 -999 3.27367 30.899696 68.188187
2003-04-14 09:23:06 51°17.7 2°51.75 -999 3.278304 30.954741 68.154477
2003-04-14 09:23:12 51°17.71 2°51.73 -999 3.277988 30.955097 68.154477
2003-04-14 09:23:16 51°17.72 2°51.71 -999 3.277988 30.955097 68.154477
2003-04-14 09:23:22 51°17.74 2°51.68 -999 3.272828 30.905506 68.188187
2003-04-14 09:23:26 51°17.75 2°51.67 -999 3.277356 30.954346 68.221896
2003-04-14 09:23:32 51°17.76 2°51.64 -999 3.275987 30.942951 68.188187
2003-04-14 09:23:36 51°17.78 2°51.63 -999 3.277567 30.957283 68.188187
2003-04-14 09:23:42 51°17.79 2°51.6 -999 3.277672 30.962048 68.188187
2003-04-14 09:23:46 51°17.8 2°51.58 -999 3.277672 30.962048 68.188187
2003-04-14 09:23:52 51°17.82 2°51.56 -999 3.277883 30.969384 68.188187
2003-04-14 09:23:56 51°17.83 2°51.54 -999 3.278726 30.98407 68.188187
2003-04-14 09:24:02 51°17.84 2°51.52 -999 3.278199 30.981492 68.221896
2003-04-14 09:24:06 51°17.86 2°51.5 -999 3.27862 30.988838 68.221896
2003-04-14 09:24:12 51°17.87 2°51.48 -999 3.276935 30.974862 68.188187
2003-04-14 09:24:16 51°17.88 2°51.46 -999 3.276935 30.974862 68.188187
2003-04-14 09:24:22 51°17.9 2°51.43 -999 3.272723 30.933685 68.188187
2003-04-14 09:24:26 51°17.91 2°51.42 -999 3.277462 30.986248 68.188187
2003-04-14 09:24:32 51°17.92 2°51.39 -999 3.278094 30.995803 68.221896
2003-04-14 09:24:36 51°17.93 2°51.37 -999 3.277673 30.994328 68.221896
2003-04-14 09:24:42 51°17.95 2°51.35 -999 3.277883 30.998739 68.188187
2003-04-14 09:24:46 51°17.96 2°51.33 -999 3.277883 30.998739 68.188187
2003-04-14 09:24:52 51°17.98 2°51.31 -999 3.27683 30.989908 68.255606
2003-04-14 09:24:56 51°17.99 2°51.29 -999 3.276093 30.985122 68.188187
2003-04-14 09:25:02 51°18 2°51.27 10.869086 3.271775 30.939886 68.255606
2003-04-14 09:25:06 51°18.01 2°51.25 10.280127 3.277884 31.006821 68.188187
2003-04-14 09:25:12 51°18.03 2°51.23 11.271676 3.276409 30.991371 68.188187
2003-04-14 09:25:16 51°18.04 2°51.21 11.271676 3.276409 30.991371 68.188187
2003-04-14 09:25:22 51°18.06 2°51.18 11.761378 3.277462 31.003877 68.188187
2003-04-14 09:25:26 51°18.07 2°51.17 11.875387 3.278094 31.010499 68.221896
2003-04-14 09:25:32 51°18.08 2°51.14 10.977162 3.272302 30.952005 68.188187
2003-04-14 09:25:36 51°18.1 2°51.13 11.427712 3.276199 30.995042 68.457862
2003-04-14 09:25:42 51°18.11 2°51.1 11.045606 3.274619 30.983628 66.536426
2003-04-14 09:25:46 51°18.12 2°51.08 11.045606 3.274619 30.983628 66.536426
2003-04-14 09:25:52 51°18.14 2°51.06 12.062694 3.277357 31.013066 65.154341
2003-04-14 09:25:56 51°18.15 2°51.04 11.160121 3.277041 31.01196 63.131777
2003-04-14 09:26:02 51°18.17 2°51.02 11.610569 3.276409 31.002395 61.041794
2003-04-14 09:26:06 51°18.18 2°51 11.872105 3.270617 30.939484 60.09793
2003-04-14 09:26:12 51°18.19 2°50.98 11.608235 3.275777 30.994301 58.850683
2003-04-14 09:26:16 51°18.2 2°50.96 11.608235 3.275777 30.994301 58.850683
2003-04-14 09:26:22 51°18.22 2°50.94 10.816255 3.275672 30.994667 57.670853
2003-04-14 09:26:26 51°18.23 2°50.92 11.983785 3.275356 30.995031 56.288768
2003-04-14 09:26:32 51°18.25 2°50.89 11.579258 3.276515 31.005705 55.210067
2003-04-14 09:26:36 51°18.26 2°50.88 10.59851 3.276093 31.002024 54.50217
2003-04-14 09:26:42 51°18.28 2°50.85 10.598324 3.275672 30.999813 53.861691
2003-04-14 09:26:46 51°18.29 2°50.84 10.598324 3.275672 30.999813 53.861691
2003-04-14 09:26:52 51°18.3 2°50.81 11.239836 3.276304 31.005703 52.108802
2003-04-14 09:26:56 51°18.31 2°50.8 9.987542 3.275567 30.997239 51.535742
2003-04-14 09:27:02 51°18.33 2°50.77 10.409782 3.27662 31.009015 49.816563
2003-04-14 09:27:06 51°18.34 2°50.75 11.810309 3.276409 31.002395 48.434477
2003-04-14 09:27:12 51°18.36 2°50.73 11.617525 3.276515 31.004234 47.288358
2003-04-14 09:27:16 51°18.37 2°50.71 11.617525 3.276515 31.004234 47.288358
2003-04-14 09:27:22 51°18.38 2°50.69 10.636144 3.277357 31.012331 46.0074
2003-04-14 09:27:26 51°18.4 2°50.67 12.212795 3.278305 31.02006 45.029828
2003-04-14 09:27:32 51°18.41 2°50.65 11.235371 3.2782 31.018956 43.614033
2003-04-14 09:27:36 51°18.42 2°50.63 10.704758 3.27999 31.036253 42.63646
2003-04-14 09:27:42 51°18.44 2°50.61 12.163979 3.280095 31.038093 41.220665
2003-04-14 09:27:46 51°18.45 2°50.59 12.163979 3.280095 31.038093 41.220665
2003-04-14 09:27:52 51°18.47 2°50.57 11.105217 3.280516 31.043981 39.670033
2003-04-14 09:27:56 51°18.48 2°50.55 10.918868 3.281043 31.048765 38.15311
2003-04-14 09:28:02 51°18.5 2°50.52 10.573037 3.281254 31.053919 36.804734
2003-04-14 09:28:06 51°18.51 2°50.51 11.631939 3.281886 31.059808 35.085554
2003-04-14 09:28:12 51°18.52 2°50.48 10.216956 3.283676 31.080792 34.276529
2003-04-14 09:28:16 51°18.53 2°50.47 10.216956 3.283676 31.080792 34.276529
2003-04-14 09:28:22 51°18.55 2°50.44 11.339677 3.284624 31.098108 33.737178
2003-04-14 09:28:26 51°18.56 2°50.43 10.953777 3.284624 31.103273 33.130409
2003-04-14 09:28:32 51°18.58 2°50.4 10.988528 3.279674 31.053558 32.692187
2003-04-14 09:28:36 51°18.59 2°50.39 11.071912 3.285993 31.119853 32.725896
2003-04-14 09:28:42 51°18.61 2°50.36 9.970464 3.28652 31.131288 34.984426
2003-04-14 09:28:46 51°18.62 2°50.34 9.970464 3.28652 31.131288 34.984426
2003-04-14 09:28:52 51°18.63 2°50.32 10.589772 3.285572 31.126512 36.669896
2003-04-14 09:28:56 51°18.65 2°50.3 10.358446 3.285572 31.139818 37.209247
2003-04-14 09:29:02 51°18.66 2°50.28 11.719448 3.285993 31.15016 36.636187
2003-04-14 09:29:06 51°18.67 2°50.26 10.944763 3.283466 31.128051 35.624905
2003-04-14 09:29:12 51°18.69 2°50.24 11.429089 3.281781 31.110353 34.613623
2003-04-14 09:29:16 51°18.7 2°50.22 11.429089 3.281781 31.110353 34.613623
2003-04-14 09:29:22 51°18.72 2°50.2 10.631638 3.285256 31.143897 33.602341
2003-04-14 09:29:26 51°18.73 2°50.18 11.540007 3.285783 31.145729 32.186546
2003-04-14 09:29:32 51°18.74 2°50.16 11.434366 3.287362 31.16158 30.939298
2003-04-14 09:29:36 51°18.75 2°50.14 11.180485 3.288942 31.184098 30.332529
2003-04-14 09:29:42 51°18.77 2°50.11 10.886348 3.290101 31.202941 29.11899
2003-04-14 09:29:46 51°18.78 2°50.1 10.886348 3.290101 31.202941 29.11899
2003-04-14 09:29:52 51°18.8 2°50.07 10.733288 3.287363 31.180837 28.512221
2003-04-14 09:29:56 51°18.81 2°50.06 11.443268 3.291996 31.232512 28.073999
2003-04-14 09:30:02 51°18.82 2°50.03 11.350843 3.291154 31.225882 27.939161
2003-04-14 09:30:06 51°18.84 2°50.02 9.623057 3.291154 31.22217 27.43352
2003-04-14 09:30:12 51°18.85 2°49.99 10.463827 3.291364 31.218448 27.46723
2003-04-14 09:30:16 51°18.86 2°49.98 10.463827 3.291364 31.218448 27.46723
2003-04-14 09:30:22 51°18.88 2°49.95 11.742243 3.29147 31.215104 27.534648
2003-04-14 09:30:26 51°18.89 2°49.93 11.626494 3.290733 31.206615 27.46723
2003-04-14 09:30:32 51°18.9 2°49.91 10.656485 3.290733 31.206615 27.029007
2003-04-14 09:30:36 51°18.92 2°49.89 11.545138 3.288521 31.183377 26.826751
2003-04-14 09:30:42 51°18.93 2°49.87 12.022046 3.295366 31.2516 26.658204
2003-04-14 09:30:46 51°18.94 2°49.85 12.022046 3.295366 31.2516 26.658204
2003-04-14 09:30:52 51°18.96 2°49.83 10.84594 3.29663 31.269339 26.725623
2003-04-14 09:30:56 51°18.97 2°49.81 10.041186 3.297894 31.285597 26.118853
2003-04-14 09:31:02 51°18.98 2°49.79 10.766997 3.299158 31.303347 26.118853
2003-04-14 09:31:06 51°18.99 2°49.77 10.690002 3.295261 31.278734 25.916597
2003-04-14 09:31:12 51°19.01 2°49.75 11.258289 3.297263 31.311698 25.984016
2003-04-14 09:31:16 51°19.02 2°49.73 11.258289 3.297263 31.311698 25.984016
2003-04-14 09:31:22 51°19.04 2°49.71 10.575268 3.300317 31.355031 26.152563
2003-04-14 09:31:26 51°19.05 2°49.69 10.765282 3.300633 31.36657 26.152563
2003-04-14 09:31:32 51°19.06 2°49.66 10.423204 3.298527 31.354093 26.017725
2003-04-14 09:31:36 51°19.07 2°49.65 11.486336 3.300422 31.376305 25.276118
2003-04-14 09:31:42 51°19.09 2°49.62 11.708801 3.298211 31.353752 24.669349
2003-04-14 09:31:46 51°19.1 2°49.61 11.708801 3.298211 31.353752 24.669349
2003-04-14 09:31:52 51°19.12 2°49.58 10.628386 3.299896 31.372252 24.703059
2003-04-14 09:31:56 51°19.13 2°49.57 10.306555 3.296842 31.340822 24.399674
2003-04-14 09:32:02 51°19.14 2°49.54 9.964504 3.300106 31.378208 23.860324
2003-04-14 09:32:06 51°19.15 2°49.53 11.819798 3.300212 31.377823 23.860324
2003-04-14 09:32:12 51°19.17 2°49.5 11.628599 3.300106 31.375218 23.253554
2003-04-14 09:32:16 51°19.18 2°49.48 11.628599 3.300106 31.375218 23.253554
2003-04-14 09:32:22 51°19.2 2°49.46 10.609756 3.300317 31.37968 23.186136
2003-04-14 09:32:26 51°19.21 2°49.44 11.630063 3.301054 31.388196 22.174853
2003-04-14 09:32:32 51°19.22 2°49.42 11.404532 3.300949 31.386339 22.141144
2003-04-14 09:32:36 51°19.23 2°49.4 11.668392 3.300317 31.380428 21.770341
2003-04-14 09:32:42 51°19.25 2°49.38 10.567736 3.301476 31.39114 21.534375
2003-04-14 09:32:46 51°19.26 2°49.36 10.567736 3.301476 31.39114 21.534375
2003-04-14 09:32:52 51°19.28 2°49.34 10.905501 3.301581 31.394493 21.601794
2003-04-14 09:32:56 51°19.29 2°49.32 11.169566 3.295999 31.336425 21.2647
2003-04-14 09:33:02 51°19.3 2°49.29 11.243379 3.298527 31.360068 20.65793
2003-04-14 09:33:06 51°19.32 2°49.28 11.436844 3.295051 31.327931 20.253418
2003-04-14 09:33:12 51°19.33 2°49.25 10.066399 3.299896 31.378231 20.69164
2003-04-14 09:33:16 51°19.34 2°49.24 10.066399 3.299896 31.378231 20.69164
2003-04-14 09:33:22 51°19.36 2°49.21 9.843459 3.300633 31.390487 21.062443
2003-04-14 09:33:26 51°19.37 2°49.19 10.229577 3.298948 31.372728 21.298409
2003-04-14 09:33:32 51°19.39 2°49.17 11.445424 3.298316 31.369806 21.298409
2003-04-14 09:33:36 51°19.4 2°49.15 11.214242 3.29958 31.384623 21.197281
2003-04-14 09:33:42 51°19.41 2°49.13 11.628324 3.300107 31.388677 21.129862
2003-04-14 09:33:46 51°19.42 2°49.11 11.628324 3.300107 31.388677 21.129862
2003-04-14 09:33:52 51°19.43 2°49.09 10.274383 3.295894 31.342036 21.062443
2003-04-14 09:33:56 51°19.44 2°49.07 12.443051 3.298737 31.371255 21.433247
2003-04-14 09:34:02 51°19.44 2°49.04 11.44079 3.294209 31.32204 21.871469
2003-04-14 09:34:06 51°19.44 2°49.03 12.429989 3.296315 31.342741 22.37711
2003-04-14 09:34:12 51°19.44 2°49.01 11.097976 3.30137 31.396761 22.781623
2003-04-14 09:34:16 51°19.44 2°49 11.097976 3.30137 31.396761 22.781623
2003-04-14 09:34:22 51°19.43 2°48.98 10.761574 3.299685 31.381245 23.725486
2003-04-14 09:34:26 51°19.42 2°48.97 10.872094 3.302108 31.409771 22.646785
2003-04-14 09:34:32 51°19.42 2°48.96 12.37242 3.301054 31.400165 20.860187
2003-04-14 09:34:36 51°19.41 2°48.96 12.222862 3.301792 31.403446 19.208426
2003-04-14 09:34:42 51°19.4 2°48.95 12.376039 3.300844 31.385229 18.871332
2003-04-14 09:34:46 51°19.39 2°48.95 12.376039 3.300844 31.385229 18.871332
2003-04-14 09:34:52 51°19.39 2°48.95 12.22259 3.302634 31.395121 18.837623
2003-04-14 09:34:56 51°19.38 2°48.96 12.13638 3.302423 31.388416 18.871332
2003-04-14 09:35:02 51°19.37 2°48.96 10.707403 3.301581 31.378047 18.97246
2003-04-14 09:35:06 51°19.37 2°48.97 9.710553 3.302107 31.380605 19.242136
2003-04-14 09:35:12 51°19.36 2°48.98 11.119097 3.300738 31.363946 19.073589
2003-04-14 09:35:16 51°19.36 2°48.98 11.119097 3.300738 31.363946 19.073589
2003-04-14 09:35:22 51°19.35 2°48.99 11.715564 3.30295 31.388731 19.511811
2003-04-14 09:35:26 51°19.35 2°49 9.700706 3.302739 31.388008 19.848905
2003-04-14 09:35:32 51°19.34 2°49.01 12.234877 3.300212 31.359147 19.916324
2003-04-14 09:35:36 51°19.34 2°49.02 11.276644 3.303161 31.399921 20.017452
2003-04-14 09:35:42 51°19.34 2°49.03 12.099547 3.301581 31.381036 20.65793
2003-04-14 09:35:46 51°19.34 2°49.03 12.099547 3.301581 31.381036 20.65793
2003-04-14 09:35:52 51°19.34 2°49.03 11.476157 3.302107 31.393311 20.185999
2003-04-14 09:35:56 51°19.34 2°49.04 11.696324 3.302318 31.397774 20.084871
2003-04-14 09:36:02 51°19.34 2°49.04 11.162931 3.302213 31.397412 19.646648
2003-04-14 09:36:06 51°19.34 2°49.04 10.403163 3.302107 31.395555 18.837623
2003-04-14 09:36:12 51°19.34 2°49.04 9.948171 3.301791 31.386244 17.826341
2003-04-14 09:36:16 51°19.34 2°49.04 9.948171 3.301791 31.386244 17.826341
2003-04-14 09:36:22 51°19.34 2°49.04 10.864087 3.302845 31.393601 17.522956
2003-04-14 09:36:26 51°19.34 2°49.04 11.505408 3.303266 31.395796 18.331982
2003-04-14 09:36:32 51°19.34 2°49.04 11.583654 3.30295 31.392468 18.3994
2003-04-14 09:36:36 51°19.34 2°49.04 11.694313 3.303266 31.397292 17.826341
2003-04-14 09:36:42 51°19.34 2°49.05 11.314995 3.303476 31.398015 18.43311
2003-04-14 09:36:46 51°19.34 2°49.06 11.314995 3.303476 31.398015 18.43311
2003-04-14 09:36:52 51°19.34 2°49.07 11.27577 3.302423 31.386174 19.141007
2003-04-14 09:36:56 51°19.34 2°49.08 11.345007 3.303476 31.397268 19.612939
2003-04-14 09:37:02 51°19.35 2°49.09 10.774831 3.303371 31.396158 19.343264
2003-04-14 09:37:06 51°19.35 2°49.09 11.46093 3.301475 31.375444 19.54552
2003-04-14 09:37:12 51°19.35 2°49.1 11.840097 3.303582 31.40062 19.54552
2003-04-14 09:37:16 51°19.35 2°49.1 11.840097 3.303582 31.40062 19.54552
2003-04-14 09:37:22 51°19.35 2°49.11 11.536617 3.302002 31.383979 20.523093
2003-04-14 09:37:26 51°19.35 2°49.11 10.704712 3.301054 31.376236 21.332118
2003-04-14 09:37:32 51°19.36 2°49.12 10.402371 3.302845 31.398087 21.2647
2003-04-14 09:37:36 51°19.36 2°49.12 10.709213 3.302739 31.398474 19.511811
2003-04-14 09:37:42 51°19.36 2°49.12 11.12652 3.303266 31.402526 18.770204
2003-04-14 09:37:46 51°19.36 2°49.12 11.12652 3.303266 31.402526 18.770204
2003-04-14 09:37:52 51°19.36 2°49.12 11.048837 3.302634 31.394373 18.871332
2003-04-14 09:37:56 51°19.36 2°49.12 10.016714 3.299474 31.36109 18.500529
2003-04-14 09:38:02 51°19.36 2°49.12 10.505634 3.302002 31.386968 18.97246
2003-04-14 09:38:06 51°19.36 2°49.12 12.146004 3.302002 31.384726 18.736494
2003-04-14 09:38:12 51°19.36 2°49.12 11.948006 3.301475 31.378432 18.635366
2003-04-14 09:38:16 51°19.36 2°49.12 11.948006 3.301475 31.378432 18.635366
2003-04-14 09:38:22 51°19.35 2°49.12 10.63122 3.30295 31.393963 18.331982
2003-04-14 09:38:26 51°19.35 2°49.12 10.407638 3.301686 31.382145 20.051161
2003-04-14 09:38:32 51°19.35 2°49.13 9.677237 3.303161 31.400668 22.815332
2003-04-14 09:38:36 51°19.35 2°49.13 9.562126 3.302529 31.400742 25.040153
2003-04-14 09:38:42 51°19.35 2°49.13 11.090181 3.302529 31.411217 26.152563
2003-04-14 09:38:46 51°19.35 2°49.13 11.090181 3.302529 31.411217 26.152563
2003-04-14 09:38:52 51°19.35 2°49.13 12.021637 3.298 31.371709 24.905315
2003-04-14 09:38:56 51°19.35 2°49.13 11.343537 3.300317 31.398381 24.467093
2003-04-14 09:39:02 51°19.35 2°49.13 11.115962 3.298211 31.375426 24.028871
2003-04-14 09:39:06 51°19.35 2°49.13 10.890373 3.299791 31.39208 24.06258
2003-04-14 09:39:12 51°19.35 2°49.14 11.605077 3.300528 31.400601 24.837896
2003-04-14 09:39:16 51°19.35 2°49.14 11.605077 3.300528 31.400601 24.837896
2003-04-14 09:39:22 51°19.35 2°49.14 11.899496 3.299791 31.394325 26.186272
2003-04-14 09:39:26 51°19.35 2°49.14 11.108907 3.300844 31.407676 26.051435
2003-04-14 09:39:32 51°19.35 2°49.14 10.425255 3.29621 31.361807 26.085144
2003-04-14 09:39:36 51°19.35 2°49.14 10.916926 3.296421 31.364028 26.051435
2003-04-14 09:39:42 51°19.35 2°49.14 10.2706 3.295999 31.36183 26.219982
2003-04-14 09:39:46 51°19.35 2°49.14 10.2706 3.295999 31.36183 26.219982
2003-04-14 09:39:52 51°19.35 2°49.15 11.144314 3.300739 31.414056 26.86046
2003-04-14 09:39:56 51°19.35 2°49.15 11.555674 3.300002 31.408527 27.029007
2003-04-14 09:40:02 51°19.35 2°49.15 11.032219 3.299791 31.409302 27.602067
2003-04-14 09:40:06 51°19.35 2°49.15 11.184446 3.295578 31.365615 28.00658
2003-04-14 09:40:12 51°19.35 2°49.15 11.332002 3.300107 31.414883 28.00658
2003-04-14 09:40:16 51°19.35 2°49.15 11.332002 3.300107 31.414883 28.00658
2003-04-14 09:40:22 51°19.36 2°49.15 11.14141 3.29958 31.411575 28.242546
2003-04-14 09:40:26 51°19.36 2°49.15 10.037952 3.299896 31.414909 28.208836
2003-04-14 09:40:32 51°19.36 2°49.16 10.992917 3.294946 31.36344 28.343674
2003-04-14 09:40:36 51°19.36 2°49.16 11.637657 3.298317 31.39974 28.175127
2003-04-14 09:40:42 51°19.36 2°49.16 9.934088 3.298422 31.399353 29.1527
2003-04-14 09:40:46 51°19.36 2°49.16 9.934088 3.298422 31.399353 29.1527
2003-04-14 09:40:52 51°19.36 2°49.16 11.038774 3.299054 31.40602 29.1527
2003-04-14 09:40:56 51°19.36 2°49.16 10.925204 3.299686 31.412686 29.085281
2003-04-14 09:41:02 51°19.36 2°49.16 10.955903 3.298001 31.397156 28.815606
2003-04-14 09:41:06 51°19.36 2°49.16 9.343656 3.300107 31.417131 27.972871
2003-04-14 09:41:12 51°19.36 2°49.17 10.309916 3.296105 31.371169 27.804324
2003-04-14 09:41:16 51°19.36 2°49.17 10.309916 3.296105 31.371169 27.804324
2003-04-14 09:41:22 51°19.36 2°49.17 11.784981 3.29621 31.370784 28.040289
2003-04-14 09:41:26 51°19.36 2°49.17 11.187348 3.299791 31.409302 28.175127
2003-04-14 09:41:32 51°19.36 2°49.17 10.047654 3.294736 31.355982 29.1527
2003-04-14 09:41:36 51°19.36 2°49.17 9.928736 3.299264 31.405994 29.321247
2003-04-14 09:41:42 51°19.36 2°49.17 11.112135 3.296 31.373052 29.287537
2003-04-14 09:41:46 51°19.36 2°49.17 11.112135 3.296 31.373052 29.287537
2003-04-14 09:41:52 51°19.36 2°49.17 10.807963 3.295473 31.369743 28.444802
2003-04-14 09:41:56 51°19.36 2°49.18 11.142562 3.297263 31.385635 28.309965
2003-04-14 09:42:02 51°19.36 2°49.18 11.371515 3.299475 31.409715 28.377383
2003-04-14 09:42:06 51°19.36 2°49.18 11.423673 3.297895 31.390054 28.343674
2003-04-14 09:42:12 51°19.36 2°49.18 11.7173 3.299686 31.410438 28.714477
2003-04-14 09:42:16 51°19.36 2°49.18 11.7173 3.299686 31.410438 28.714477
2003-04-14 09:42:22 51°19.37 2°49.18 11.040575 3.299791 31.411549 29.1527
2003-04-14 09:42:26 51°19.37 2°49.18 11.495735 3.298211 31.395633 28.950443
2003-04-14 09:42:32 51°19.37 2°49.19 11.155605 3.29958 31.410077 28.54593
2003-04-14 09:42:36 51°19.37 2°49.19 11.152609 3.294631 31.361603 28.343674
2003-04-14 09:42:42 51°19.37 2°49.19 11.788495 3.294736 31.359722 27.838033
2003-04-14 09:42:46 51°19.37 2°49.19 11.788495 3.294736 31.359722 27.838033
2003-04-14 09:42:52 51°19.37 2°49.19 11.341239 3.295684 31.365978 27.871742
2003-04-14 09:42:56 51°19.37 2°49.19 11.526949 3.300739 31.416303 27.298683
2003-04-14 09:43:02 51°19.37 2°49.19 11.37767 3.294736 31.35299 27.703195
2003-04-14 09:43:06 51°19.37 2°49.19 10.924834 3.295368 31.360402 27.500939
2003-04-14 09:43:12 51°19.37 2°49.2 11.530385 3.300423 31.41372 27.736905
2003-04-14 09:43:16 51°19.37 2°49.2 11.530385 3.300423 31.41372 27.736905
2003-04-14 09:43:22 51°19.37 2°49.2 11.384191 3.294736 31.355234 27.534648
2003-04-14 09:43:26 51°19.37 2°49.2 10.708378 3.300423 31.416717 27.46723
2003-04-14 09:43:32 51°19.38 2°49.2 11.055253 3.297579 31.38747 27.602067
2003-04-14 09:43:36 51°19.38 2°49.2 11.698792 3.29463 31.354123 27.43352
2003-04-14 09:43:42 51°19.38 2°49.2 9.950284 3.299159 31.401887 27.062717
2003-04-14 09:43:46 51°19.38 2°49.2 9.950284 3.299159 31.401887 27.062717
2003-04-14 09:43:52 51°19.38 2°49.21 9.680065 3.299896 31.407416 26.590785
2003-04-14 09:43:56 51°19.38 2°49.21 12.101455 3.295578 31.357388 26.051435
2003-04-14 09:44:02 51°19.38 2°49.21 9.947514 3.298211 31.384403 25.343537
2003-04-14 09:44:06 51°19.38 2°49.21 9.716536 3.301371 31.413229 25.242409
2003-04-14 09:44:12 51°19.38 2°49.21 9.950378 3.296526 31.359905 25.512084
2003-04-14 09:44:16 51°19.38 2°49.21 9.950378 3.296526 31.359905 25.512084
2003-04-14 09:44:22 51°19.38 2°49.21 10.335725 3.298948 31.385442 25.680631
2003-04-14 09:44:26 51°19.38 2°49.21 10.450692 3.295578 31.349912 25.950306
2003-04-14 09:44:32 51°19.38 2°49.22 10.294043 3.298422 31.37989 26.118853
2003-04-14 09:44:36 51°19.39 2°49.22 10.292315 3.299685 31.394712 26.017725
2003-04-14 09:44:42 51°19.39 2°49.22 10.176882 3.29463 31.338427 25.545794
2003-04-14 09:44:46 51°19.39 2°49.22 10.176882 3.29463 31.338427 25.545794
2003-04-14 09:44:52 51°19.39 2°49.22 9.599324 3.300633 31.401712 25.444665
2003-04-14 09:44:56 51°19.39 2°49.22 10.517966 3.294946 31.34101 26.118853
2003-04-14 09:45:02 51°19.39 2°49.22 10.405401 3.297053 31.362465 26.826751
2003-04-14 09:45:06 51°19.39 2°49.22 10.482033 3.301055 31.406902 26.422238
2003-04-14 09:45:12 51°19.39 2°49.22 11.3326 3.294946 31.343251 26.354819
2003-04-14 09:45:16 51°19.39 2°49.23 11.3326 3.294946 31.343251 26.354819
2003-04-14 09:45:22 51°19.39 2°49.23 10.002739 3.30116 31.40951 26.219982
2003-04-14 09:45:26 51°19.39 2°49.23 10.863393 3.294841 31.343636 26.219982
2003-04-14 09:45:32 51°19.39 2°49.23 10.86455 3.295999 31.357344 25.646922
2003-04-14 09:45:36 51°19.4 2°49.23 10.175105 3.298632 31.383607 25.512084
2003-04-14 09:45:42 51°19.4 2°49.23 9.600598 3.295894 31.356981 25.444665
2003-04-14 09:45:46 51°19.4 2°49.23 9.600598 3.295894 31.356981 25.444665
2003-04-14 09:45:52 51°19.4 2°49.23 9.545503 3.296631 31.364006 25.410956
2003-04-14 09:45:56 51°19.4 2°49.23 9.444587 3.294736 31.34402 25.107571
2003-04-14 09:46:02 51°19.4 2°49.24 10.638513 3.300633 31.406204 25.242409
2003-04-14 09:46:06 51°19.4 2°49.24 11.054237 3.302318 31.423974 24.972734
2003-04-14 09:46:12 51°19.4 2°49.24 11.509075 3.298316 31.381772 25.478375
2003-04-14 09:46:16 51°19.4 2°49.24 11.509075 3.298316 31.381772 25.478375
2003-04-14 09:46:22 51°19.4 2°49.24 11.057284 3.300423 31.403234 25.512084
2003-04-14 09:46:26 51°19.4 2°49.24 10.598835 3.299896 31.396933 25.478375
2003-04-14 09:46:32 51°19.4 2°49.24 9.488329 3.297053 31.366952 25.2087
2003-04-14 09:46:36 51°19.4 2°49.24 10.028904 3.300107 31.39616 25.073862
2003-04-14 09:46:42 51°19.41 2°49.25 10.491716 3.296421 31.358047 25.2087
2003-04-14 09:46:46 51°19.41 2°49.25 10.491716 3.296421 31.358047 25.2087
2003-04-14 09:46:52 51°19.41 2°49.25 11.364442 3.294209 31.333986 24.837896
2003-04-14 09:46:56 51°19.41 2°49.25 10.796983 3.294104 31.331382 24.163708
2003-04-14 09:47:02 51°19.41 2°49.25 10.374396 3.300528 31.402099 23.894033
2003-04-14 09:47:06 51°19.41 2°49.25 10.796241 3.296315 31.356937 23.287264
2003-04-14 09:47:12 51°19.41 2°49.25 9.840121 3.299685 31.391718 23.085007
2003-04-14 09:47:16 51°19.41 2°49.25 9.840121 3.299685 31.391718 23.085007
2003-04-14 09:47:22 51°19.41 2°49.26 10.8358 3.29442 31.333219 23.017589
2003-04-14 09:47:26 51°19.41 2°49.26 10.380599 3.295052 31.340626 23.287264
2003-04-14 09:47:32 51°19.41 2°49.26 10.987235 3.300001 31.39056 23.48952
2003-04-14 09:47:36 51°19.41 2°49.26 11.104157 3.294946 31.339516 23.691777
2003-04-14 09:47:42 51°19.42 2°49.26 10.722945 3.294736 31.335802 23.927742
2003-04-14 09:47:46 51°19.42 2°49.26 10.722945 3.294736 31.335802 23.927742
2003-04-14 09:47:52 51°19.42 2°49.26 11.630978 3.301054 31.402411 23.52323
2003-04-14 09:47:56 51°19.42 2°49.26 11.442258 3.294104 31.329142 23.085007
2003-04-14 09:48:02 51°19.42 2°49.26 11.258058 3.29779 31.365751 22.882751
2003-04-14 09:48:06 51°19.42 2°49.27 9.35351 3.300739 31.396086 22.613076
2003-04-14 09:48:12 51°19.42 2°49.27 9.975109 3.301476 31.403109 22.680494
2003-04-14 09:48:16 51°19.42 2°49.27 9.975109 3.301476 31.403109 22.680494
2003-04-14 09:48:22 51°19.43 2°49.27 10.893334 3.302002 31.406415 22.983879
2003-04-14 09:48:26 51°19.43 2°49.27 11.535838 3.301686 31.402336 22.882751
2003-04-14 09:48:32 51°19.43 2°49.27 10.018215 3.301476 31.399368 23.017589
2003-04-14 09:48:36 51°19.44 2°49.27 10.747571 3.301792 31.399705 22.714204
2003-04-14 09:48:42 51°19.44 2°49.26 9.600031 3.303055 31.408535 22.714204
2003-04-14 09:48:46 51°19.45 2°49.26 9.600031 3.303055 31.408535 22.714204
2003-04-14 09:48:52 51°19.46 2°49.25 11.359342 3.302318 31.397774 22.91646
2003-04-14 09:48:56 51°19.47 2°49.25 11.882771 3.302739 31.399969 22.545657
2003-04-14 09:49:02 51°19.48 2°49.24 10.367634 3.301791 31.389235 22.646785
2003-04-14 09:49:06 51°19.48 2°49.24 11.045975 3.302423 31.393649 22.174853
2003-04-14 09:49:12 51°19.5 2°49.23 11.120849 3.301686 31.38364 22.107435
2003-04-14 09:49:16 51°19.51 2°49.22 11.120849 3.301686 31.38364 22.107435
2003-04-14 09:49:22 51°19.52 2°49.2 10.625878 3.30453 31.411353 21.635503
2003-04-14 09:49:26 51°19.53 2°49.19 11.614002 3.303266 31.396544 21.635503
2003-04-14 09:49:32 51°19.54 2°49.17 9.829071 3.303055 31.395073 21.736631
2003-04-14 09:49:36 51°19.55 2°49.16 11.34997 3.303266 31.398787 22.478238
2003-04-14 09:49:42 51°19.56 2°49.13 10.448084 3.302107 31.38733 22.646785
2003-04-14 09:49:46 51°19.57 2°49.11 10.448084 3.302107 31.38733 22.646785
2003-04-14 09:49:52 51°19.58 2°49.09 10.787159 3.301265 31.382192 22.006306
2003-04-14 09:49:56 51°19.59 2°49.07 10.944947 3.30137 31.382554 20.860187
2003-04-14 09:50:02 51°19.6 2°49.04 9.761084 3.302213 31.390683 20.489383
2003-04-14 09:50:06 51°19.6 2°49.02 10.036171 3.302002 31.388463 19.781486
2003-04-14 09:50:12 51°19.61 2°48.99 9.693733 3.302529 31.393263 19.478101
2003-04-14 09:50:16 51°19.62 2°48.97 9.693733 3.302529 31.393263 19.478101
2003-04-14 09:50:22 51°19.63 2°48.94 10.154145 3.302213 31.38844 19.073589
2003-04-14 09:50:26 51°19.64 2°48.92 11.025939 3.301791 31.383255 18.837623
2003-04-14 09:50:32 51°19.65 2°48.89 11.248672 3.303582 31.399872 18.905042
2003-04-14 09:50:36 51°19.66 2°48.87 9.79111 3.30316 31.392445 19.646648
2003-04-14 09:50:42 51°19.67 2°48.84 9.832457 3.304951 31.404574 20.893896
2003-04-14 09:50:46 51°19.68 2°48.82 9.832457 3.304951 31.404574 20.893896
2003-04-14 09:50:52 51°19.69 2°48.79 11.587408 3.303476 31.384564 22.680494
2003-04-14 09:50:56 51°19.7 2°48.77 10.97499 3.302002 31.372027 24.197418
2003-04-14 09:51:02 51°19.71 2°48.74 9.788475 3.303792 31.391627 25.444665
2003-04-14 09:51:06 51°19.72 2°48.72 11.347535 3.302844 31.386128 25.377247
2003-04-14 09:51:12 51°19.73 2°48.69 11.306628 3.301686 31.376915 24.60193
2003-04-14 09:51:16 51°19.74 2°48.66 11.306628 3.301686 31.376915 24.60193
2003-04-14 09:51:22 51°19.74 2°48.63 11.010146 3.302213 31.383209 24.703059
2003-04-14 09:51:26 51°19.75 2°48.61 11.510038 3.302423 31.383933 24.905315
2003-04-14 09:51:32 51°19.76 2°48.58 11.215208 3.302213 31.384703 25.17499
2003-04-14 09:51:36 51°19.76 2°48.56 10.266723 3.301581 31.382531 25.107571
2003-04-14 09:51:42 51°19.77 2°48.52 8.880024 3.299685 31.364803 24.871606
2003-04-14 09:51:46 51°19.77 2°48.5 8.880024 3.299685 31.364803 24.871606
2003-04-14 09:51:52 51°19.78 2°48.47 10.316824 3.301054 31.379225 24.332255
2003-04-14 09:51:56 51°19.78 2°48.44 10.627411 3.300212 31.368109 23.253554
2003-04-14 09:52:02 51°19.79 2°48.41 11.04279 3.300844 31.371029 22.882751
2003-04-14 09:52:06 51°19.79 2°48.39 10.89958 3.300528 31.363221 22.91646
2003-04-14 09:52:12 51°19.8 2°48.35 11.379874 3.298632 31.340274 22.781623
2003-04-14 09:52:16 51°19.8 2°48.33 11.379874 3.298632 31.340274 22.781623
2003-04-14 09:52:22 51°19.81 2°48.3 9.229661 3.299053 31.339487 22.714204
2003-04-14 09:52:26 51°19.81 2°48.28 11.108123 3.299895 31.344627 23.017589
2003-04-14 09:52:32 51°19.82 2°48.24 11.194901 3.300633 31.348658 22.714204
2003-04-14 09:52:36 51°19.82 2°48.22 11.279312 3.300843 31.347145 22.849042
2003-04-14 09:52:42 51°19.83 2°48.19 11.211019 3.299158 31.328666 23.995161
2003-04-14 09:52:46 51°19.83 2°48.16 11.211019 3.299158 31.328666 23.995161
2003-04-14 09:52:52 51°19.84 2°48.13 9.835889 3.300211 31.339749 25.040153
2003-04-14 09:52:56 51°19.84 2°48.11 10.973604 3.299158 31.330902 25.916597
2003-04-14 09:53:02 51°19.85 2°48.08 10.210505 3.298316 31.325017 25.410956
2003-04-14 09:53:06 51°19.85 2°48.06 11.389564 3.300527 31.342329 24.298546
2003-04-14 09:53:12 51°19.85 2°48.03 11.247337 3.299474 31.326774 23.826614
2003-04-14 09:53:16 51°19.86 2°48.01 11.247337 3.299474 31.326774 23.826614
2003-04-14 09:53:22 51°19.86 2°47.99 10.385355 3.299685 31.32601 24.298546
2003-04-14 09:53:26 51°19.86 2°47.98 10.473047 3.300001 31.328589 25.073862
2003-04-14 09:53:32 51°19.86 2°47.96 10.741265 3.299685 31.32601 25.377247
2003-04-14 09:53:36 51°19.86 2°47.94 11.235279 3.300843 31.338944 24.972734
2003-04-14 09:53:42 51°19.87 2°47.92 9.132293 3.298421 31.31197 23.759195
2003-04-14 09:53:46 51°19.87 2°47.91 9.132293 3.298421 31.31197 23.759195
2003-04-14 09:53:52 51°19.87 2°47.9 10.412066 3.297894 31.301963 22.95017
2003-04-14 09:53:56 51°19.87 2°47.89 8.675277 3.298421 31.300059 22.849042
2003-04-14 09:54:02 51°19.87 2°47.87 10.910081 3.298842 31.299281 22.613076
2003-04-14 09:54:06 51°19.87 2°47.86 10.764309 3.299158 31.297396 21.871469
2003-04-14 09:54:12 51°19.87 2°47.85 9.582096 3.298842 31.2911 21.568084
2003-04-14 09:54:16 51°19.87 2°47.85 9.582096 3.298842 31.2911 21.568084
2003-04-14 09:54:22 51°19.87 2°47.84 11.003033 3.298315 31.281105 20.893896
2003-04-14 09:54:26 51°19.87 2°47.83 9.233885 3.297473 31.269279 20.320836
2003-04-14 09:54:32 51°19.87 2°47.83 10.889355 3.296419 31.255985 20.017452
2003-04-14 09:54:36 51°19.87 2°47.83 10.243783 3.29842 31.273297 19.444392
2003-04-14 09:54:42 51°19.87 2°47.83 10.588052 3.297051 31.252232 19.00617
2003-04-14 09:54:46 51°19.87 2°47.83 10.588052 3.297051 31.252232 19.00617
2003-04-14 09:54:52 51°19.87 2°47.82 8.930585 3.298736 31.266221 18.736494
2003-04-14 09:54:56 51°19.87 2°47.82 11.008022 3.299895 31.274677 18.601657
2003-04-14 09:55:02 51°19.87 2°47.82 11.005574 3.301053 31.286844 17.994888
2003-04-14 09:55:06 51°19.87 2°47.82 10.70165 3.3 31.273556 17.556665
2003-04-14 09:55:12 51°19.87 2°47.82 11.000031 3.301474 31.287556 17.691503
2003-04-14 09:55:16 51°19.87 2°47.82 11.000031 3.301474 31.287556 17.691503
2003-04-14 09:55:22 51°19.87 2°47.82 10.731433 3.301369 31.284964 17.657794
2003-04-14 09:55:26 51°19.87 2°47.82 9.771298 3.301053 31.280162 18.129725
2003-04-14 09:55:32 51°19.87 2°47.81 10.957428 3.301474 31.283843 18.837623
2003-04-14 09:55:36 51°19.87 2°47.81 11.526994 3.301474 31.285328 19.612939
2003-04-14 09:55:42 51°19.87 2°47.81 9.128965 3.301685 31.288282 20.455674
2003-04-14 09:55:46 51°19.87 2°47.81 9.128965 3.301685 31.288282 20.455674
2003-04-14 09:55:52 51°19.87 2°47.81 11.12984 3.300527 31.279828 20.995024
2003-04-14 09:55:56 51°19.87 2°47.81 11.501878 3.299052 31.26657 20.65793
2003-04-14 09:56:02 51°19.87 2°47.81 11.160628 3.300737 31.287239 20.455674
2003-04-14 09:56:06 51°19.87 2°47.81 11.161687 3.301158 31.290179 20.084871
2003-04-14 09:56:12 51°19.87 2°47.81 10.863624 3.300527 31.280571 19.680358
2003-04-14 09:56:16 51°19.88 2°47.81 10.863624 3.300527 31.280571 19.680358
2003-04-14 09:56:22 51°19.88 2°47.81 9.449601 3.300842 31.27795 19.848905
2003-04-14 09:56:26 51°19.88 2°47.81 11.096178 3.301685 31.28457 20.354546
2003-04-14 09:56:32 51°19.88 2°47.8 11.097607 3.302106 31.287509 19.983742
2003-04-14 09:56:36 51°19.88 2°47.8 11.361088 3.302527 31.290447 20.017452
2003-04-14 09:56:42 51°19.88 2°47.8 9.214994 3.30179 31.282706 19.950033
2003-04-14 09:56:46 51°19.88 2°47.8 9.214994 3.30179 31.282706 19.950033
2003-04-14 09:56:52 51°19.88 2°47.8 11.052253 3.302317 31.285266 20.320836
2003-04-14 09:56:56 51°19.88 2°47.8 10.785537 3.302527 31.285993 20.320836
2003-04-14 09:57:02 51°19.88 2°47.8 10.673292 3.302738 31.284493 20.556802
2003-04-14 09:57:06 51°19.88 2°47.8 9.718185 3.302317 31.281555 20.354546
2003-04-14 09:57:12 51°19.88 2°47.8 9.645508 3.303265 31.290021 20.388255
2003-04-14 09:57:16 51°19.88 2°47.8 9.645508 3.303265 31.290021 20.388255
2003-04-14 09:57:22 51°19.88 2°47.8 10.451065 3.302843 31.287826 20.826477
2003-04-14 09:57:26 51°19.88 2°47.8 11.623703 3.302633 31.287099 21.028734
2003-04-14 09:57:32 51°19.88 2°47.8 9.362605 3.303265 31.295218 20.759059
2003-04-14 09:57:36 51°19.88 2°47.8 11.579808 3.30337 31.294096 20.354546
2003-04-14 09:57:42 51°19.88 2°47.8 11.361134 3.302738 31.285978 20.826477
2003-04-14 09:57:46 51°19.88 2°47.8 11.361134 3.302738 31.285978 20.826477
2003-04-14 09:57:52 51°19.88 2°47.8 11.026955 3.29842 31.23917 20.725349
2003-04-14 09:57:56 51°19.88 2°47.8 11.484915 3.301158 31.268652 21.500665
2003-04-14 09:58:02 51°19.88 2°47.8 11.069974 3.30179 31.276769 21.568084
2003-04-14 09:58:06 51°19.88 2°47.8 10.570061 3.303791 31.297034 21.433247
2003-04-14 09:58:12 51°19.88 2°47.8 11.013471 3.302317 31.280813 21.028734
2003-04-14 09:58:16 51°19.88 2°47.8 11.013471 3.302317 31.280813 21.028734
2003-04-14 09:58:22 51°19.88 2°47.8 10.697149 3.303054 31.284842 21.062443
2003-04-14 09:58:26 51°19.88 2°47.81 10.815514 3.302106 31.271926 20.556802
2003-04-14 09:58:32 51°19.88 2°47.81 10.588703 3.304212 31.291065 20.725349
2003-04-14 09:58:36 51°19.88 2°47.81 9.240955 3.298736 31.235077 21.534375
2003-04-14 09:58:42 51°19.88 2°47.81 11.114025 3.304318 31.296623 22.242272
2003-04-14 09:58:46 51°19.88 2°47.81 11.114025 3.304318 31.296623 22.242272
2003-04-14 09:58:52 51°19.88 2°47.81 9.858972 3.298525 31.242499 23.186136
2003-04-14 09:58:56 51°19.88 2°47.81 9.474098 3.30021 31.263895 22.545657
2003-04-14 09:59:02 51°19.88 2°47.81 11.223956 3.303475 31.301885 22.511947
2003-04-14 09:59:06 51°19.88 2°47.81 10.919516 3.30179 31.284933 22.242272
2003-04-14 09:59:12 51°19.88 2°47.81 11.030603 3.302317 31.294176 22.107435
2003-04-14 09:59:16 51°19.88 2°47.81 11.030603 3.302317 31.294176 22.107435
2003-04-14 09:59:22 51°19.88 2°47.81 11.564742 3.302001 31.290115 21.871469
2003-04-14 09:59:26 51°19.88 2°47.81 11.111858 3.302001 31.289373 22.040016
2003-04-14 09:59:32 51°19.88 2°47.81 10.152648 3.302843 31.298963 22.3434
2003-04-14 09:59:36 51°19.88 2°47.81 11.096362 3.297156 31.24147 22.95017
2003-04-14 09:59:42 51°19.88 2°47.82 8.711026 3.298841 31.263616 22.410819
2003-04-14 09:59:46 51°19.88 2°47.82 8.711026 3.298841 31.263616 22.410819
2003-04-14 09:59:52 51°19.88 2°47.82 10.258921 3.30158 31.29089 22.107435
2003-04-14 09:59:56 51°19.88 2°47.82 9.136808 3.299895 31.273934 22.073725
2003-04-14 10:00:02 51°19.88 2°47.82 11.354886 3.299789 31.274313 22.613076
2003-04-14 10:00:06 51°19.88 2°47.82 10.859736 3.300316 31.282814 23.017589
2003-04-14 10:00:12 51°19.88 2°47.82 10.1358 3.297788 31.260718 22.849042
2003-04-14 10:00:16 51°19.88 2°47.82 10.1358 3.297788 31.260718 22.849042
2003-04-14 10:00:22 51°19.88 2°47.82 9.214566 3.300316 31.2895 22.882751
2003-04-14 10:00:26 51°19.88 2°47.82 9.334322 3.300737 31.294669 23.085007
2003-04-14 10:00:32 51°19.88 2°47.83 10.335912 3.300316 31.292472 23.48952
2003-04-14 10:00:36 51°19.88 2°47.83 8.919761 3.300105 31.294719 23.320973
2003-04-14 10:00:42 51°19.88 2°47.83 9.17387 3.300316 31.296932 23.085007
2003-04-14 10:00:46 51°19.88 2°47.83 9.17387 3.300316 31.296932 23.085007
2003-04-14 10:00:52 51°19.88 2°47.83 8.786477 3.300737 31.302846 22.3434
2003-04-14 10:00:56 51°19.88 2°47.83 9.37416 3.299263 31.285121 22.37711
2003-04-14 10:01:02 51°19.88 2°47.83 9.455986 3.300105 31.289516 22.511947
2003-04-14 10:01:06 51°19.88 2°47.83 11.030926 3.300421 31.294322 22.646785
2003-04-14 10:01:12 51°19.88 2°47.84 8.876684 3.298104 31.27072 22.815332
2003-04-14 10:01:16 51°19.88 2°47.84 8.876684 3.298104 31.27072 22.815332
2003-04-14 10:01:22 51°19.88 2°47.84 11.325889 3.298736 31.279588 22.781623
2003-04-14 10:01:26 51°19.88 2°47.84 9.332664 3.299368 31.284742 22.849042
2003-04-14 10:01:32 51°19.88 2°47.84 10.780578 3.300421 31.292836 21.938888
2003-04-14 10:01:36 51°19.88 2°47.84 9.414684 3.299158 31.275101 21.770341
2003-04-14 10:01:42 51°19.88 2°47.84 9.532324 3.300421 31.287635 22.3434
2003-04-14 10:01:46 51°19.88 2°47.84 9.532324 3.300421 31.287635 22.3434
2003-04-14 10:01:52 51°19.88 2°47.85 11.436523 3.299263 31.274722 22.983879
2003-04-14 10:01:56 51°19.88 2°47.85 11.315179 3.300527 31.291713 23.017589
2003-04-14 10:02:02 51°19.88 2°47.85 10.479938 3.300843 31.295033 22.613076
2003-04-14 10:02:06 51°19.88 2°47.85 11.542664 3.300527 31.292456 22.613076
2003-04-14 10:02:12 51°19.88 2°47.85 11.50417 3.300211 31.288393 22.849042
2003-04-14 10:02:16 51°19.88 2°47.85 11.50417 3.300211 31.288393 22.849042
2003-04-14 10:02:22 51°19.88 2°47.85 11.094702 3.299579 31.282497 23.186136
2003-04-14 10:02:26 51°19.88 2°47.86 11.283084 3.296946 31.253352 23.051298
2003-04-14 10:02:32 51°19.88 2°47.86 11.247613 3.299052 31.283651 22.882751
2003-04-14 10:02:36 51°19.88 2°47.86 11.056176 3.299895 31.291762 22.91646
2003-04-14 10:02:42 51°19.88 2°47.86 10.338525 3.296209 31.253029 22.613076
2003-04-14 10:02:46 51°19.88 2°47.86 10.338525 3.296209 31.253029 22.613076
2003-04-14 10:02:52 51°19.88 2°47.86 10.912162 3.29821 31.274798 22.141144
2003-04-14 10:02:56 51°19.88 2°47.86 10.912578 3.300105 31.292489 22.006306
2003-04-14 10:03:02 51°19.88 2°47.87 10.532761 3.298104 31.27072 22.073725
2003-04-14 10:03:06 51°19.88 2°47.87 11.292558 3.299158 31.2803 21.770341
2003-04-14 10:03:12 51°19.88 2°47.87 10.919562 3.300316 31.292472 21.702922
2003-04-14 10:03:16 51°19.88 2°47.87 10.919562 3.300316 31.292472 21.702922
2003-04-14 10:03:22 51°19.88 2°47.87 9.57832 3.299895 31.28656 21.972597
2003-04-14 10:03:26 51°19.88 2°47.87 10.766997 3.298526 31.269947 22.511947
2003-04-14 10:03:32 51°19.88 2°47.88 10.65147 3.300105 31.285058 22.815332
2003-04-14 10:03:36 51°19.88 2°47.88 11.482393 3.297262 31.254445 22.478238
2003-04-14 10:03:42 51°19.88 2°47.88 9.850981 3.300948 31.290938 21.938888
2003-04-14 10:03:46 51°19.88 2°47.88 9.850981 3.300948 31.290938 21.938888
2003-04-14 10:03:52 51°19.89 2°47.88 10.152648 3.296419 31.241144 22.208563
2003-04-14 10:03:56 51°19.89 2°47.88 11.13763 3.301369 31.293877 21.938888
2003-04-14 10:04:02 51°19.89 2°47.89 11.329107 3.302212 31.301242 21.837759
2003-04-14 10:04:06 51°19.89 2°47.89 10.955348 3.300527 31.284284 21.365828
2003-04-14 10:04:12 51°19.89 2°47.89 10.921643 3.300316 31.280586 21.298409
2003-04-14 10:04:16 51°19.89 2°47.89 10.921643 3.300316 31.280586 21.298409
2003-04-14 10:04:22 51°19.89 2°47.89 9.851122 3.301896 31.298666 22.208563
2003-04-14 10:04:26 51°19.89 2°47.89 10.504237 3.300527 31.28577 22.073725
2003-04-14 10:04:32 51°19.89 2°47.9 10.426326 3.300316 31.2843 21.669212
2003-04-14 10:04:36 51°19.89 2°47.9 10.26803 3.300737 31.288725 21.298409
2003-04-14 10:04:42 51°19.89 2°47.9 11.36389 3.300527 31.283541 21.129862
2003-04-14 10:04:46 51°19.89 2°47.9 11.36389 3.300527 31.283541 21.129862
2003-04-14 10:04:52 51°19.89 2°47.9 10.334792 3.301474 31.292755 21.298409
2003-04-14 10:04:56 51°19.89 2°47.91 11.018089 3.298841 31.262132 21.399537
2003-04-14 10:05:02 51°19.89 2°47.91 9.94958 3.29684 31.241118 21.399537
2003-04-14 10:05:06 51°19.89 2°47.91 11.021322 3.300632 31.281677 21.23099
2003-04-14 10:05:12 51°19.89 2°47.91 9.803625 3.296946 31.246674 21.601794
2003-04-14 10:05:16 51°19.89 2°47.91 9.803625 3.296946 31.246674 21.601794
2003-04-14 10:05:22 51°19.89 2°47.91 10.425348 3.300316 31.285042 21.298409
2003-04-14 10:05:26 51°19.89 2°47.92 10.960248 3.299158 31.276586 21.096153
2003-04-14 10:05:32 51°19.89 2°47.92 10.426373 3.301053 31.297989 20.995024
2003-04-14 10:05:36 51°19.89 2°47.92 10.692554 3.299579 31.28324 20.860187
2003-04-14 10:05:42 51°19.89 2°47.92 10.957798 3.301369 31.299079 20.860187
2003-04-14 10:05:46 51°19.89 2°47.92 10.957798 3.301369 31.299079 20.860187
2003-04-14 10:05:52 51°19.89 2°47.93 10.731897 3.299263 31.27695 20.219708
2003-04-14 10:05:56 51°19.89 2°47.93 9.698869 3.299684 31.275434 20.051161
2003-04-14 10:06:02 51°19.89 2°47.93 9.502792 3.29821 31.257721 20.455674
2003-04-14 10:06:06 51°19.89 2°47.93 10.916325 3.294734 31.221966 20.523093
2003-04-14 10:06:12 51°19.89 2°47.93 10.910636 3.297578 31.250343 20.893896
2003-04-14 10:06:16 51°19.89 2°47.93 10.910636 3.297578 31.250343 20.893896
2003-04-14 10:06:22 51°19.89 2°47.94 9.647205 3.302212 31.297527 20.287127
2003-04-14 10:06:26 51°19.89 2°47.94 11.135049 3.300211 31.277253 20.152289
2003-04-14 10:06:32 51°19.89 2°47.94 9.917231 3.302738 31.303058 20.860187
2003-04-14 10:06:36 51°19.89 2°47.94 10.030264 3.300842 31.28686 21.80405
2003-04-14 10:06:42 51°19.89 2°47.94 11.207795 3.302001 31.299772 22.275982
2003-04-14 10:06:46 51°19.89 2°47.95 11.207795 3.302001 31.299772 22.275982
2003-04-14 10:06:52 51°19.9 2°47.95 11.359986 3.300421 31.286892 21.80405
2003-04-14 10:06:56 51°19.9 2°47.95 9.876032 3.302317 31.306808 21.635503
2003-04-14 10:07:02 51°19.9 2°47.95 10.109257 3.298947 31.272145 21.669212
2003-04-14 10:07:06 51°19.9 2°47.95 9.72671 3.301369 31.299079 22.208563
2003-04-14 10:07:12 51°19.9 2°47.96 10.455723 3.301474 31.301672 21.905178
2003-04-14 10:07:16 51°19.9 2°47.96 10.455723 3.301474 31.301672 21.905178
2003-04-14 10:07:22 51°19.9 2°47.96 10.494416 3.297578 31.260732 22.37711
2003-04-14 10:07:26 51°19.9 2°47.96 10.42148 3.297894 31.263309 22.309691
2003-04-14 10:07:32 51°19.9 2°47.96 9.727134 3.293576 31.218694 22.3434
2003-04-14 10:07:36 51°19.9 2°47.96 10.943792 3.300105 31.286544 22.444529
2003-04-14 10:07:42 51°19.9 2°47.97 11.322534 3.301685 31.301655 22.511947
2003-04-14 10:07:46 51°19.9 2°47.97 11.322534 3.301685 31.301655 22.511947
2003-04-14 10:07:52 51°19.9 2°47.97 11.696781 3.294313 31.223472 21.702922
2003-04-14 10:07:56 51°19.9 2°47.97 10.677563 3.298631 31.268084 21.129862
2003-04-14 10:08:02 51°19.9 2°47.97 11.731006 3.294524 31.224943 21.736631
2003-04-14 10:08:06 51°19.9 2°47.98 9.5685 3.301264 31.298716 22.242272
2003-04-14 10:08:12 51°19.9 2°47.98 10.498512 3.301896 31.306842 22.747913
2003-04-14 10:08:16 51°19.9 2°47.98 10.498512 3.301896 31.306842 22.747913
2003-04-14 10:08:22 51°19.9 2°47.98 11.18311 3.29484 31.231969 22.747913
2003-04-14 10:08:26 51°19.9 2°47.98 9.731232 3.296525 31.250411 23.388392
2003-04-14 10:08:32 51°19.9 2°47.99 11.104203 3.300421 31.293579 23.556939
2003-04-14 10:08:36 51°19.9 2°47.99 10.88209 3.298947 31.276601 23.287264
2003-04-14 10:08:42 51°19.91 2°47.99 9.694628 3.296841 31.252988 22.646785
2003-04-14 10:08:46 51°19.91 2°47.99 9.694628 3.296841 31.252988 22.646785
2003-04-14 10:08:52 51°19.91 2°47.99 10.727305 3.297999 31.260704 22.579366
2003-04-14 10:08:56 51°19.91 2°48 10.651934 3.301264 31.294257 22.410819
2003-04-14 10:09:02 51°19.91 2°48 10.654535 3.297367 31.252583 21.837759
2003-04-14 10:09:06 51°19.91 2°48 10.041702 3.299684 31.275434 21.534375
2003-04-14 10:09:12 51°19.91 2°48 10.388339 3.293786 31.212754 21.601794
2003-04-14 10:09:16 51°19.91 2°48 10.388339 3.293786 31.212754 21.601794
2003-04-14 10:09:22 51°19.91 2°48.01 11.069189 3.295155 31.227872 21.433247
2003-04-14 10:09:26 51°19.91 2°48.01 9.806307 3.301264 31.291285 21.601794
2003-04-14 10:09:32 51°19.91 2°48.01 10.877324 3.294629 31.22086 21.365828
2003-04-14 10:09:36 51°19.91 2°48.01 9.578037 3.302212 31.299756 21.129862
2003-04-14 10:09:42 51°19.91 2°48.02 10.91725 3.302317 31.300862 21.365828
2003-04-14 10:09:46 51°19.91 2°48.02 10.91725 3.302317 31.300862 21.365828
2003-04-14 10:09:52 51°19.91 2°48.02 10.538669 3.296209 31.235966 21.905178
2003-04-14 10:09:56 51°19.91 2°48.02 11.183939 3.296314 31.237072 21.837759
2003-04-14 10:10:02 51°19.91 2°48.02 11.560071 3.294102 31.216812 22.141144
2003-04-14 10:10:06 51°19.91 2°48.03 11.186104 3.292628 31.202071 21.80405
2003-04-14 10:10:12 51°19.91 2°48.03 9.657343 3.299789 31.27654 22.006306
2003-04-14 10:10:16 51°19.91 2°48.03 9.657343 3.299789 31.27654 22.006306
2003-04-14 10:10:22 51°19.92 2°48.03 10.616122 3.300737 31.287239 22.174853
2003-04-14 10:10:26 51°19.92 2°48.03 11.441662 3.302949 31.308243 21.905178
2003-04-14 10:10:32 51°19.92 2°48.04 9.840309 3.298841 31.264358 21.500665
2003-04-14 10:10:36 51°19.92 2°48.04 10.263079 3.30179 31.296817 21.298409
2003-04-14 10:10:42 51°19.92 2°48.04 11.139151 3.300842 31.286117 21.163571
2003-04-14 10:10:46 51°19.92 2°48.04 11.139151 3.300842 31.286117 21.163571
2003-04-14 10:10:52 51°19.92 2°48.05 10.793739 3.299157 31.267676 21.197281
2003-04-14 10:10:56 51°19.92 2°48.05 10.405681 3.295998 31.235978 21.096153
2003-04-14 10:11:02 51°19.92 2°48.05 11.049576 3.300632 31.286133 21.163571
2003-04-14 10:11:06 51°19.92 2°48.05 11.348316 3.296419 31.245595 21.129862
2003-04-14 10:11:12 51°19.92 2°48.05 10.630616 3.296525 31.245959 20.995024
2003-04-14 10:11:16 51°19.92 2°48.06 10.630616 3.296525 31.245959 20.995024
2003-04-14 10:11:22 51°19.92 2°48.06 11.578114 3.297999 31.262188 21.028734
2003-04-14 10:11:26 51°19.92 2°48.06 11.016288 3.295472 31.24009 21.500665
2003-04-14 10:11:32 51°19.92 2°48.06 11.958341 3.294734 31.236055 21.669212
2003-04-14 10:11:36 51°19.92 2°48.07 9.140278 3.297894 31.271478 21.770341
2003-04-14 10:11:42 51°19.92 2°48.07 10.831261 3.295472 31.248995 21.466956
2003-04-14 10:11:46 51°19.92 2°48.07 10.831261 3.295472 31.248995 21.466956
2003-04-14 10:11:52 51°19.92 2°48.07 10.986357 3.29484 31.242355 21.669212
2003-04-14 10:11:56 51°19.93 2°48.07 10.757262 3.296209 31.253772 21.702922
2003-04-14 10:12:02 51°19.93 2°48.08 11.139981 3.295472 31.246026 22.006306
2003-04-14 10:12:06 51°19.93 2°48.08 9.534828 3.292417 31.210974 21.905178